Wetterdaten: Freitag, 13.03.2015
Datum Zeit Temp. Aussen +5cm Feuchte Auss Luftdruck Regen Sonnenschein Regendauer Solar Windben
13.03.2015 00:00 4,3 C 0,6 C 78 % 1026,0 hPa 0,0 l/m 0 min 0 min 0 W/m 2,1 km/h (1 Bft)
13.03.2015 00:02 4,2 C 0,6 C 78 % 1026,0 hPa 0,0 l/m 0 min 0 min 0 W/m 0,0 km/h (0 Bft)
13.03.2015 00:06 4,1 C 0,6 C 78 % 1025,9 hPa 0,0 l/m 0 min 0 min 0 W/m 2,1 km/h (1 Bft)
13.03.2015 00:08 4,0 C 0,6 C 78 % 1025,9 hPa 0,0 l/m 0 min 0 min 0 W/m 2,1 km/h (1 Bft)
13.03.2015 00:10 3,9 C 0,6 C 78 % 1025,9 hPa 0,0 l/m 0 min 0 min 0 W/m 2,1 km/h (1 Bft)
13.03.2015 00:12 3,9 C 0,6 C 79 % 1025,9 hPa 0,0 l/m 0 min 0 min 0 W/m 0,0 km/h (0 Bft)
13.03.2015 00:14 3,8 C 0,6 C 79 % 1025,8 hPa 0,0 l/m 0 min 0 min 0 W/m 2,1 km/h (1 Bft)
13.03.2015 00:16 3,8 C 0,6 C 79 % 1025,8 hPa 0,0 l/m 0 min 0 min 0 W/m 2,1 km/h (1 Bft)
13.03.2015 00:18 3,7 C 0,6 C 79 % 1025,9 hPa 0,0 l/m 0 min 0 min 0 W/m 2,1 km/h (1 Bft)
13.03.2015 00:20 3,7 C 0,0 C 79 % 1025,8 hPa 0,0 l/m 0 min 0 min 0 W/m 2,1 km/h (1 Bft)
13.03.2015 00:22 3,6 C 0,0 C 79 % 1025,8 hPa 0,0 l/m 0 min 0 min 0 W/m 2,1 km/h (1 Bft)
13.03.2015 00:24 3,5 C 0,0 C 79 % 1025,8 hPa 0,0 l/m 0 min 0 min 0 W/m 2,1 km/h (1 Bft)
13.03.2015 00:26 3,4 C 0,0 C 79 % 1025,8 hPa 0,0 l/m 0 min 0 min 0 W/m 2,1 km/h (1 Bft)
13.03.2015 00:28 3,4 C 0,0 C 79 % 1025,8 hPa 0,0 l/m 0 min 0 min 0 W/m 2,1 km/h (1 Bft)
13.03.2015 00:30 3,3 C 0,0 C 79 % 1025,8 hPa 0,0 l/m 0 min 0 min 0 W/m 4,2 km/h (1 Bft)
13.03.2015 00:32 3,3 C 0,0 C 80 % 1025,8 hPa 0,0 l/m 0 min 0 min 0 W/m 4,2 km/h (1 Bft)
13.03.2015 00:34 3,2 C 0,0 C 80 % 1025,8 hPa 0,0 l/m 0 min 0 min 0 W/m 2,1 km/h (1 Bft)
13.03.2015 00:36 3,2 C 0,0 C 80 % 1025,8 hPa 0,0 l/m 0 min 0 min 0 W/m 4,2 km/h (1 Bft)
13.03.2015 00:38 3,1 C 0,0 C 80 % 1025,8 hPa 0,0 l/m 0 min 0 min 0 W/m 4,2 km/h (1 Bft)
13.03.2015 00:40 3,1 C 0,0 C 80 % 1025,8 hPa 0,0 l/m 0 min 0 min 0 W/m 4,2 km/h (1 Bft)
13.03.2015 00:42 3,0 C 0,0 C 80 % 1025,8 hPa 0,0 l/m 0 min 0 min 0 W/m 4,2 km/h (1 Bft)
13.03.2015 00:44 2,9 C 0,0 C 80 % 1025,7 hPa 0,0 l/m 0 min 0 min 0 W/m 4,2 km/h (1 Bft)
13.03.2015 00:46 2,9 C 0,0 C 80 % 1025,7 hPa 0,0 l/m 0 min 0 min 0 W/m 6,3 km/h (2 Bft)
13.03.2015 00:48 2,8 C 0,0 C 80 % 1025,7 hPa 0,0 l/m 0 min 0 min 0 W/m 4,2 km/h (1 Bft)
13.03.2015 00:50 2,8 C 0,0 C 81 % 1025,7 hPa 0,0 l/m 0 min 0 min 0 W/m 4,2 km/h (1 Bft)
13.03.2015 00:52 2,7 C 0,0 C 81 % 1025,7 hPa 0,0 l/m 0 min 0 min 0 W/m 4,2 km/h (1 Bft)
13.03.2015 00:54 2,7 C 0,0 C 81 % 1025,7 hPa 0,0 l/m 0 min 0 min 0 W/m 4,2 km/h (1 Bft)
13.03.2015 00:56 2,6 C 0,0 C 81 % 1025,6 hPa 0,0 l/m 0 min 0 min 0 W/m 4,2 km/h (1 Bft)
13.03.2015 00:58 2,6 C 0,0 C 81 % 1025,7 hPa 0,0 l/m 0 min 0 min 0 W/m 4,2 km/h (1 Bft)
13.03.2015 01:00 2,6 C 0,0 C 81 % 1025,7 hPa 0,0 l/m 0 min 0 min 0 W/m 4,2 km/h (1 Bft)
13.03.2015 01:02 2,5 C 0,0 C 81 % 1025,7 hPa 0,0 l/m 0 min 0 min 0 W/m 6,3 km/h (2 Bft)
13.03.2015 01:04 2,4 C 0,0 C 81 % 1025,7 hPa 0,0 l/m 0 min 0 min 0 W/m 4,2 km/h (1 Bft)
13.03.2015 01:06 2,4 C -0,6 C 82 % 1025,7 hPa 0,0 l/m 0 min 0 min 0 W/m 4,2 km/h (1 Bft)
13.03.2015 01:08 2,4 C 0,0 C 82 % 1025,7 hPa 0,0 l/m 0 min 0 min 0 W/m 6,3 km/h (2 Bft)
13.03.2015 01:10 2,3 C 0,0 C 82 % 1025,7 hPa 0,0 l/m 0 min 0 min 0 W/m 10,5 km/h (2 Bft)
13.03.2015 01:12 2,3 C 0,0 C 82 % 1025,7 hPa 0,0 l/m 0 min 0 min 0 W/m 6,3 km/h (2 Bft)
13.03.2015 01:14 2,3 C 0,0 C 82 % 1025,6 hPa 0,0 l/m 0 min 0 min 0 W/m 6,3 km/h (2 Bft)
13.03.2015 01:16 2,2 C 0,0 C 82 % 1025,7 hPa 0,0 l/m 0 min 0 min 0 W/m 6,3 km/h (2 Bft)
13.03.2015 01:18 2,2 C -0,6 C 82 % 1025,7 hPa 0,0 l/m 0 min 0 min 0 W/m 4,2 km/h (1 Bft)
13.03.2015 01:20 2,2 C -0,6 C 83 % 1025,8 hPa 0,0 l/m 0 min 0 min 0 W/m 6,3 km/h (2 Bft)
13.03.2015 01:22 2,2 C -0,6 C 83 % 1025,8 hPa 0,0 l/m 0 min 0 min 0 W/m 4,2 km/h (1 Bft)
13.03.2015 01:24 2,1 C -0,6 C 83 % 1025,7 hPa 0,0 l/m 0 min 0 min 0 W/m 4,2 km/h (1 Bft)
13.03.2015 01:26 2,1 C -0,6 C 83 % 1025,8 hPa 0,0 l/m 0 min 0 min 0 W/m 4,2 km/h (1 Bft)
13.03.2015 01:28 2,1 C -0,6 C 83 % 1025,8 hPa 0,0 l/m 0 min 0 min 0 W/m 6,3 km/h (2 Bft)
13.03.2015 01:30 2,1 C -0,6 C 83 % 1025,8 hPa 0,0 l/m 0 min 0 min 0 W/m 4,2 km/h (1 Bft)
13.03.2015 01:32 2,0 C -0,6 C 83 % 1025,8 hPa 0,0 l/m 0 min 0 min 0 W/m 4,2 km/h (1 Bft)
13.03.2015 01:34 2,0 C -0,6 C 83 % 1025,8 hPa 0,0 l/m 0 min 0 min 0 W/m 6,3 km/h (2 Bft)
13.03.2015 01:36 1,9 C -0,6 C 84 % 1025,8 hPa 0,0 l/m 0 min 0 min 0 W/m 4,2 km/h (1 Bft)
13.03.2015 01:38 1,9 C -0,6 C 84 % 1025,8 hPa 0,0 l/m 0 min 0 min 0 W/m 6,3 km/h (2 Bft)
13.03.2015 01:40 1,9 C -0,6 C 84 % 1025,8 hPa 0,0 l/m 0 min 0 min 0 W/m 4,2 km/h (1 Bft)
13.03.2015 01:42 1,9 C -0,6 C 84 % 1025,8 hPa 0,0 l/m 0 min 0 min 0 W/m 10,5 km/h (2 Bft)
13.03.2015 01:44 1,8 C -0,6 C 84 % 1025,8 hPa 0,0 l/m 0 min 0 min 0 W/m 6,3 km/h (2 Bft)
13.03.2015 01:46 1,8 C -0,6 C 84 % 1025,8 hPa 0,0 l/m 0 min 0 min 0 W/m 6,3 km/h (2 Bft)
13.03.2015 01:48 1,8 C -0,6 C 84 % 1025,8 hPa 0,0 l/m 0 min 0 min 0 W/m 4,2 km/h (1 Bft)
13.03.2015 01:50 1,8 C -0,6 C 84 % 1025,8 hPa 0,0 l/m 0 min 0 min 0 W/m 6,3 km/h (2 Bft)
13.03.2015 01:52 1,7 C -0,6 C 84 % 1025,8 hPa 0,0 l/m 0 min 0 min 0 W/m 4,2 km/h (1 Bft)
13.03.2015 01:54 1,7 C -0,6 C 84 % 1025,8 hPa 0,0 l/m 0 min 0 min 0 W/m 4,2 km/h (1 Bft)
13.03.2015 01:56 1,7 C -0,6 C 84 % 1025,8 hPa 0,0 l/m 0 min 0 min 0 W/m 4,2 km/h (1 Bft)
13.03.2015 01:58 1,6 C -0,6 C 84 % 1025,7 hPa 0,0 l/m 0 min 0 min 0 W/m 4,2 km/h (1 Bft)
13.03.2015 02:00 1,6 C -0,6 C 85 % 1025,7 hPa 0,0 l/m 0 min 0 min 0 W/m 6,3 km/h (2 Bft)
13.03.2015 02:02 1,6 C -0,6 C 85 % 1025,7 hPa 0,0 l/m 0 min 0 min 0 W/m 6,3 km/h (2 Bft)
13.03.2015 02:04 1,6 C -0,6 C 85 % 1025,7 hPa 0,0 l/m 0 min 0 min 0 W/m 10,5 km/h (2 Bft)
13.03.2015 02:06 1,6 C -0,6 C 85 % 1025,7 hPa 0,0 l/m 0 min 0 min 0 W/m 10,5 km/h (2 Bft)
13.03.2015 02:08 1,5 C -0,6 C 85 % 1025,7 hPa 0,0 l/m 0 min 0 min 0 W/m 6,3 km/h (2 Bft)
13.03.2015 02:10 1,5 C -0,6 C 85 % 1025,7 hPa 0,0 l/m 0 min 0 min 0 W/m 6,3 km/h (2 Bft)
13.03.2015 02:12 1,5 C -0,6 C 85 % 1025,6 hPa 0,0 l/m 0 min 0 min 0 W/m 4,2 km/h (1 Bft)
13.03.2015 02:14 1,4 C -0,6 C 86 % 1025,7 hPa 0,0 l/m 0 min 0 min 0 W/m 4,2 km/h (1 Bft)
13.03.2015 02:16 1,4 C -0,6 C 86 % 1025,6 hPa 0,0 l/m 0 min 0 min 0 W/m 6,3 km/h (2 Bft)
13.03.2015 02:18 1,4 C -1,1 C 86 % 1025,6 hPa 0,0 l/m 0 min 0 min 0 W/m 2,1 km/h (1 Bft)
13.03.2015 02:20 1,4 C -1,1 C 86 % 1025,6 hPa 0,0 l/m 0 min 0 min 0 W/m 4,2 km/h (1 Bft)
13.03.2015 02:22 1,4 C -1,1 C 86 % 1025,6 hPa 0,0 l/m 0 min 0 min 0 W/m 4,2 km/h (1 Bft)
13.03.2015 02:24 1,4 C -1,1 C 86 % 1025,5 hPa 0,0 l/m 0 min 0 min 0 W/m 4,2 km/h (1 Bft)
13.03.2015 02:26 1,4 C -1,1 C 86 % 1025,5 hPa 0,0 l/m 0 min 0 min 0 W/m 4,2 km/h (1 Bft)
13.03.2015 02:28 1,3 C -1,1 C 86 % 1025,5 hPa 0,0 l/m 0 min 0 min 0 W/m 4,2 km/h (1 Bft)
13.03.2015 02:30 1,3 C -1,1 C 86 % 1025,5 hPa 0,0 l/m 0 min 0 min 0 W/m 4,2 km/h (1 Bft)
13.03.2015 02:32 1,3 C -1,1 C 87 % 1025,4 hPa 0,0 l/m 0 min 0 min 0 W/m 4,2 km/h (1 Bft)
13.03.2015 02:34 1,3 C -1,1 C 87 % 1025,4 hPa 0,0 l/m 0 min 0 min 0 W/m 4,2 km/h (1 Bft)
13.03.2015 02:36 1,3 C -1,1 C 87 % 1025,4 hPa 0,0 l/m 0 min 0 min 0 W/m 2,1 km/h (1 Bft)
13.03.2015 02:38 1,3 C -1,1 C 87 % 1025,4 hPa 0,0 l/m 0 min 0 min 0 W/m 4,2 km/h (1 Bft)
13.03.2015 02:40 1,3 C -1,1 C 87 % 1025,4 hPa 0,0 l/m 0 min 0 min 0 W/m 4,2 km/h (1 Bft)
13.03.2015 02:42 1,2 C -1,1 C 87 % 1025,4 hPa 0,0 l/m 0 min 0 min 0 W/m 4,2 km/h (1 Bft)
13.03.2015 02:44 1,2 C -1,1 C 87 % 1025,4 hPa 0,0 l/m 0 min 0 min 0 W/m 2,1 km/h (1 Bft)
13.03.2015 02:46 1,2 C -1,1 C 87 % 1025,4 hPa 0,0 l/m 0 min 0 min 0 W/m 2,1 km/h (1 Bft)
13.03.2015 02:48 1,2 C -1,1 C 87 % 1025,4 hPa 0,0 l/m 0 min 0 min 0 W/m 4,2 km/h (1 Bft)
13.03.2015 02:50 1,2 C -1,1 C 87 % 1025,4 hPa 0,0 l/m 0 min 0 min 0 W/m 4,2 km/h (1 Bft)
13.03.2015 02:52 1,2 C -1,1 C 87 % 1025,4 hPa 0,0 l/m 0 min 0 min 0 W/m 4,2 km/h (1 Bft)
13.03.2015 02:54 1,1 C -1,1 C 87 % 1025,4 hPa 0,0 l/m 0 min 0 min 0 W/m 4,2 km/h (1 Bft)
13.03.2015 02:56 1,1 C -1,1 C 87 % 1025,3 hPa 0,0 l/m 0 min 0 min 0 W/m 4,2 km/h (1 Bft)
13.03.2015 02:58 1,1 C -1,7 C 87 % 1025,4 hPa 0,0 l/m 0 min 0 min 0 W/m 6,3 km/h (2 Bft)
13.03.2015 03:00 1,1 C -1,7 C 87 % 1025,4 hPa 0,0 l/m 0 min 0 min 0 W/m 4,2 km/h (1 Bft)
13.03.2015 03:02 1,0 C -1,7 C 87 % 1025,4 hPa 0,0 l/m 0 min 0 min 0 W/m 4,2 km/h (1 Bft)
13.03.2015 03:04 0,9 C -1,7 C 87 % 1025,4 hPa 0,0 l/m 0 min 0 min 0 W/m 6,3 km/h (2 Bft)
13.03.2015 03:06 0,9 C -1,7 C 87 % 1025,4 hPa 0,0 l/m 0 min 0 min 0 W/m 8,4 km/h (2 Bft)
13.03.2015 03:08 0,9 C -1,7 C 87 % 1025,4 hPa 0,0 l/m 0 min 0 min 0 W/m 4,2 km/h (1 Bft)
13.03.2015 03:10 0,9 C -1,7 C 87 % 1025,4 hPa 0,0 l/m 0 min 0 min 0 W/m 6,3 km/h (2 Bft)
13.03.2015 03:12 0,8 C -1,7 C 87 % 1025,4 hPa 0,0 l/m 0 min 0 min 0 W/m 10,5 km/h (2 Bft)
13.03.2015 03:14 0,8 C -1,7 C 87 % 1025,4 hPa 0,0 l/m 0 min 0 min 0 W/m 10,5 km/h (2 Bft)
13.03.2015 03:16 0,8 C -1,1 C 88 % 1025,3 hPa 0,0 l/m 0 min 0 min 0 W/m 12,6 km/h (3 Bft)
13.03.2015 03:18 0,8 C -1,1 C 88 % 1025,4 hPa 0,0 l/m 0 min 0 min 0 W/m 16,7 km/h (3 Bft)
13.03.2015 03:20 0,9 C -0,6 C 88 % 1025,4 hPa 0,0 l/m 0 min 0 min 0 W/m 16,7 km/h (3 Bft)
13.03.2015 03:22 0,9 C -0,6 C 88 % 1025,4 hPa 0,0 l/m 0 min 0 min 0 W/m 12,6 km/h (3 Bft)
13.03.2015 03:24 1,0 C 0,0 C 89 % 1025,4 hPa 0,0 l/m 0 min 0 min 0 W/m 14,6 km/h (3 Bft)
13.03.2015 03:26 1,1 C 0,0 C 89 % 1025,4 hPa 0,0 l/m 0 min 0 min 0 W/m 14,6 km/h (3 Bft)
13.03.2015 03:28 1,2 C 0,0 C 89 % 1025,4 hPa 0,0 l/m 0 min 0 min 0 W/m 16,7 km/h (3 Bft)
13.03.2015 03:30 1,2 C 0,6 C 89 % 1025,4 hPa 0,0 l/m 0 min 0 min 0 W/m 14,6 km/h (3 Bft)
13.03.2015 03:32 1,3 C 0,6 C 90 % 1025,4 hPa 0,0 l/m 0 min 0 min 0 W/m 14,6 km/h (3 Bft)
13.03.2015 03:34 1,4 C 0,6 C 90 % 1025,4 hPa 0,0 l/m 0 min 0 min 0 W/m 14,6 km/h (3 Bft)
13.03.2015 03:36 1,4 C 0,6 C 90 % 1025,4 hPa 0,0 l/m 0 min 0 min 0 W/m 14,6 km/h (3 Bft)
13.03.2015 03:38 1,5 C 0,6 C 90 % 1025,4 hPa 0,0 l/m 0 min 0 min 0 W/m 10,5 km/h (2 Bft)
13.03.2015 03:40 1,6 C 0,6 C 90 % 1025,4 hPa 0,0 l/m 0 min 0 min 0 W/m 12,6 km/h (3 Bft)
13.03.2015 03:42 1,6 C 0,6 C 90 % 1025,4 hPa 0,0 l/m 0 min 0 min 0 W/m 14,6 km/h (3 Bft)
13.03.2015 03:44 1,7 C 0,6 C 90 % 1025,4 hPa 0,0 l/m 0 min 0 min 0 W/m 12,6 km/h (3 Bft)
13.03.2015 03:46 1,7 C 0,6 C 90 % 1025,4 hPa 0,0 l/m 0 min 0 min 0 W/m 16,7 km/h (3 Bft)
13.03.2015 03:48 1,7 C 0,6 C 90 % 1025,5 hPa 0,0 l/m 0 min 0 min 0 W/m 14,6 km/h (3 Bft)
13.03.2015 03:50 1,8 C 0,6 C 90 % 1025,5 hPa 0,0 l/m 0 min 0 min 0 W/m 12,6 km/h (3 Bft)
13.03.2015 03:52 1,8 C 0,6 C 90 % 1025,5 hPa 0,0 l/m 0 min 0 min 0 W/m 14,6 km/h (3 Bft)
13.03.2015 03:54 1,9 C 0,6 C 90 % 1025,5 hPa 0,0 l/m 0 min 0 min 0 W/m 16,7 km/h (3 Bft)
13.03.2015 03:56 1,9 C 0,6 C 90 % 1025,4 hPa 0,0 l/m 0 min 0 min 0 W/m 14,6 km/h (3 Bft)
13.03.2015 03:58 1,9 C 0,6 C 90 % 1025,4 hPa 0,0 l/m 0 min 0 min 0 W/m 14,6 km/h (3 Bft)
13.03.2015 04:00 1,9 C 0,6 C 90 % 1025,4 hPa 0,0 l/m 0 min 0 min 0 W/m 14,6 km/h (3 Bft)
13.03.2015 04:05 2,0 C 0,6 C 90 % 1025,4 hPa 0,0 l/m 0 min 0 min 0 W/m 12,6 km/h (3 Bft)
13.03.2015 04:06 2,0 C 0,6 C 90 % 1025,4 hPa 0,0 l/m 0 min 0 min 0 W/m 14,6 km/h (3 Bft)
13.03.2015 04:08 2,1 C 0,6 C 90 % 1025,5 hPa 0,0 l/m 0 min 0 min 0 W/m 20,9 km/h (4 Bft)
13.03.2015 04:10 2,1 C 0,6 C 90 % 1025,4 hPa 0,0 l/m 0 min 0 min 0 W/m 12,6 km/h (3 Bft)
13.03.2015 04:12 2,1 C 0,6 C 90 % 1025,4 hPa 0,0 l/m 0 min 0 min 0 W/m 14,6 km/h (3 Bft)
13.03.2015 04:14 2,1 C 0,6 C 90 % 1025,5 hPa 0,0 l/m 0 min 0 min 0 W/m 14,6 km/h (3 Bft)
13.03.2015 04:16 2,1 C 0,6 C 90 % 1025,5 hPa 0,0 l/m 0 min 0 min 0 W/m 14,6 km/h (3 Bft)
13.03.2015 04:18 2,1 C 0,6 C 89 % 1025,5 hPa 0,0 l/m 0 min 0 min 0 W/m 12,6 km/h (3 Bft)
13.03.2015 04:20 2,1 C 0,6 C 89 % 1025,4 hPa 0,0 l/m 0 min 0 min 0 W/m 14,6 km/h (3 Bft)
13.03.2015 04:22 2,1 C 0,6 C 89 % 1025,5 hPa 0,0 l/m 0 min 0 min 0 W/m 14,6 km/h (3 Bft)
13.03.2015 04:24 2,1 C 0,6 C 89 % 1025,5 hPa 0,0 l/m 0 min 0 min 0 W/m 16,7 km/h (3 Bft)
13.03.2015 04:26 2,1 C 0,6 C 89 % 1025,5 hPa 0,0 l/m 0 min 0 min 0 W/m 8,4 km/h (2 Bft)
13.03.2015 04:28 2,1 C 0,0 C 89 % 1025,5 hPa 0,0 l/m 0 min 0 min 0 W/m 8,4 km/h (2 Bft)
13.03.2015 04:30 2,1 C 0,0 C 89 % 1025,4 hPa 0,0 l/m 0 min 0 min 0 W/m 8,4 km/h (2 Bft)
13.03.2015 04:32 2,1 C 0,0 C 88 % 1025,4 hPa 0,0 l/m 0 min 0 min 0 W/m 8,4 km/h (2 Bft)
13.03.2015 04:34 2,1 C 0,0 C 88 % 1025,4 hPa 0,0 l/m 0 min 0 min 0 W/m 8,4 km/h (2 Bft)
13.03.2015 04:36 2,1 C 0,0 C 88 % 1025,4 hPa 0,0 l/m 0 min 0 min 0 W/m 10,5 km/h (2 Bft)
13.03.2015 04:38 2,1 C 0,0 C 88 % 1025,4 hPa 0,0 l/m 0 min 0 min 0 W/m 6,3 km/h (2 Bft)
13.03.2015 04:40 2,1 C 0,0 C 88 % 1025,5 hPa 0,0 l/m 0 min 0 min 0 W/m 8,4 km/h (2 Bft)
13.03.2015 04:42 2,0 C 0,0 C 88 % 1025,4 hPa 0,0 l/m 0 min 0 min 0 W/m 6,3 km/h (2 Bft)
13.03.2015 04:44 2,0 C 0,0 C 88 % 1025,4 hPa 0,0 l/m 0 min 0 min 0 W/m 8,4 km/h (2 Bft)
13.03.2015 04:46 2,0 C -0,6 C 88 % 1025,5 hPa 0,0 l/m 0 min 0 min 0 W/m 6,3 km/h (2 Bft)
13.03.2015 04:48 2,0 C -0,6 C 88 % 1025,4 hPa 0,0 l/m 0 min 0 min 0 W/m 6,3 km/h (2 Bft)
13.03.2015 04:50 2,0 C -0,6 C 88 % 1025,4 hPa 0,0 l/m 0 min 0 min 0 W/m 6,3 km/h (2 Bft)
13.03.2015 04:52 1,9 C -0,6 C 88 % 1025,4 hPa 0,0 l/m 0 min 0 min 0 W/m 8,4 km/h (2 Bft)
13.03.2015 04:54 1,9 C -0,6 C 87 % 1025,4 hPa 0,0 l/m 0 min 0 min 0 W/m 6,3 km/h (2 Bft)
13.03.2015 04:56 1,9 C -0,6 C 87 % 1025,4 hPa 0,0 l/m 0 min 0 min 0 W/m 8,4 km/h (2 Bft)
13.03.2015 04:58 1,9 C -0,6 C 87 % 1025,4 hPa 0,0 l/m 0 min 0 min 0 W/m 6,3 km/h (2 Bft)
13.03.2015 05:00 1,8 C -0,6 C 87 % 1025,4 hPa 0,0 l/m 0 min 0 min 0 W/m 8,4 km/h (2 Bft)
13.03.2015 05:02 1,8 C -0,6 C 87 % 1025,4 hPa 0,0 l/m 0 min 0 min 0 W/m 6,3 km/h (2 Bft)
13.03.2015 05:04 1,8 C -0,6 C 87 % 1025,4 hPa 0,0 l/m 0 min 0 min 0 W/m 6,3 km/h (2 Bft)
13.03.2015 05:06 1,7 C -1,1 C 87 % 1025,4 hPa 0,0 l/m 0 min 0 min 0 W/m 8,4 km/h (2 Bft)
13.03.2015 05:08 1,7 C -1,1 C 87 % 1025,3 hPa 0,0 l/m 0 min 0 min 0 W/m 6,3 km/h (2 Bft)
13.03.2015 05:10 1,7 C -1,1 C 87 % 1025,3 hPa 0,0 l/m 0 min 0 min 0 W/m 8,4 km/h (2 Bft)
13.03.2015 05:12 1,7 C -1,1 C 87 % 1025,3 hPa 0,0 l/m 0 min 0 min 0 W/m 8,4 km/h (2 Bft)
13.03.2015 05:14 1,6 C -1,1 C 87 % 1025,3 hPa 0,0 l/m 0 min 0 min 0 W/m 8,4 km/h (2 Bft)
13.03.2015 05:16 1,6 C -1,1 C 87 % 1025,3 hPa 0,0 l/m 0 min 0 min 0 W/m 10,5 km/h (2 Bft)
13.03.2015 05:18 1,6 C -1,1 C 87 % 1025,3 hPa 0,0 l/m 0 min 0 min 0 W/m 8,4 km/h (2 Bft)
13.03.2015 05:20 1,6 C -1,1 C 87 % 1025,3 hPa 0,0 l/m 0 min 0 min 0 W/m 6,3 km/h (2 Bft)
13.03.2015 05:22 1,5 C -1,1 C 87 % 1025,3 hPa 0,0 l/m 0 min 0 min 0 W/m 8,4 km/h (2 Bft)
13.03.2015 05:24 1,4 C -1,1 C 87 % 1025,3 hPa 0,0 l/m 0 min 0 min 0 W/m 6,3 km/h (2 Bft)
13.03.2015 05:26 1,4 C -1,1 C 87 % 1025,3 hPa 0,0 l/m 0 min 0 min 0 W/m 8,4 km/h (2 Bft)
13.03.2015 05:28 1,4 C -1,1 C 87 % 1025,3 hPa 0,0 l/m 0 min 0 min 0 W/m 8,4 km/h (2 Bft)
13.03.2015 05:30 1,4 C -1,1 C 87 % 1025,3 hPa 0,0 l/m 0 min 0 min 0 W/m 6,3 km/h (2 Bft)
13.03.2015 05:32 1,3 C -1,1 C 87 % 1025,3 hPa 0,0 l/m 0 min 0 min 0 W/m 6,3 km/h (2 Bft)
13.03.2015 05:34 1,3 C -1,1 C 87 % 1025,2 hPa 0,0 l/m 0 min 0 min 0 W/m 8,4 km/h (2 Bft)
13.03.2015 05:36 1,3 C -1,1 C 87 % 1025,3 hPa 0,0 l/m 0 min 0 min 0 W/m 10,5 km/h (2 Bft)
13.03.2015 05:38 1,2 C -0,6 C 87 % 1025,2 hPa 0,0 l/m 0 min 0 min 0 W/m 10,5 km/h (2 Bft)
13.03.2015 05:40 1,2 C -0,6 C 87 % 1025,2 hPa 0,0 l/m 0 min 0 min 0 W/m 8,4 km/h (2 Bft)
13.03.2015 05:42 1,2 C -1,1 C 87 % 1025,2 hPa 0,0 l/m 0 min 0 min 0 W/m 10,5 km/h (2 Bft)
13.03.2015 05:44 1,2 C -0,6 C 88 % 1025,3 hPa 0,0 l/m 0 min 0 min 0 W/m 10,5 km/h (2 Bft)
13.03.2015 05:46 1,2 C -0,6 C 88 % 1025,3 hPa 0,0 l/m 0 min 0 min 0 W/m 10,5 km/h (2 Bft)
13.03.2015 05:48 1,2 C -0,6 C 88 % 1025,3 hPa 0,0 l/m 0 min 0 min 0 W/m 6,3 km/h (2 Bft)
13.03.2015 05:50 1,2 C -0,6 C 88 % 1025,2 hPa 0,0 l/m 0 min 0 min 0 W/m 6,3 km/h (2 Bft)
13.03.2015 05:52 1,1 C -1,1 C 88 % 1025,3 hPa 0,0 l/m 0 min 0 min 0 W/m 6,3 km/h (2 Bft)
13.03.2015 05:54 1,1 C -1,1 C 88 % 1025,3 hPa 0,0 l/m 0 min 0 min 0 W/m 4,2 km/h (1 Bft)
13.03.2015 05:56 1,1 C -1,1 C 88 % 1025,2 hPa 0,0 l/m 0 min 0 min 0 W/m 4,2 km/h (1 Bft)
13.03.2015 05:58 1,1 C -1,1 C 88 % 1025,3 hPa 0,0 l/m 0 min 0 min 0 W/m 6,3 km/h (2 Bft)
13.03.2015 06:00 1,1 C -1,1 C 88 % 1025,3 hPa 0,0 l/m 0 min 0 min 0 W/m 6,3 km/h (2 Bft)
13.03.2015 06:02 1,0 C -1,7 C 88 % 1025,3 hPa 0,0 l/m 0 min 0 min 0 W/m 4,2 km/h (1 Bft)
13.03.2015 06:06 0,9 C -1,7 C 88 % 1025,1 hPa 0,0 l/m 0 min 0 min 0 W/m 6,3 km/h (2 Bft)
13.03.2015 06:08 0,9 C -1,7 C 88 % 1025,1 hPa 0,0 l/m 0 min 0 min 0 W/m 4,2 km/h (1 Bft)
13.03.2015 06:10 0,9 C -1,7 C 88 % 1025,1 hPa 0,0 l/m 0 min 0 min 0 W/m 10,5 km/h (2 Bft)
13.03.2015 06:12 0,9 C -1,7 C 88 % 1025,1 hPa 0,0 l/m 0 min 0 min 0 W/m 6,3 km/h (2 Bft)
13.03.2015 06:14 0,8 C -1,7 C 88 % 1025,1 hPa 0,0 l/m 0 min 0 min 0 W/m 10,5 km/h (2 Bft)
13.03.2015 06:16 0,8 C -1,7 C 88 % 1025,1 hPa 0,0 l/m 0 min 0 min 0 W/m 6,3 km/h (2 Bft)
13.03.2015 06:18 0,8 C -1,7 C 88 % 1025,1 hPa 0,0 l/m 0 min 0 min 0 W/m 6,3 km/h (2 Bft)
13.03.2015 06:20 0,7 C -1,7 C 88 % 1025,1 hPa 0,0 l/m 0 min 0 min 0 W/m 6,3 km/h (2 Bft)
13.03.2015 06:22 0,7 C -1,7 C 88 % 1025,1 hPa 0,0 l/m 0 min 0 min 0 W/m 6,3 km/h (2 Bft)
13.03.2015 06:24 0,7 C -1,7 C 88 % 1025,2 hPa 0,0 l/m 0 min 0 min 0 W/m 10,5 km/h (2 Bft)
13.03.2015 06:26 0,6 C -1,7 C 88 % 1025,1 hPa 0,0 l/m 0 min 0 min 0 W/m 6,3 km/h (2 Bft)
13.03.2015 06:28 0,6 C -1,7 C 88 % 1025,1 hPa 0,0 l/m 0 min 0 min 0 W/m 6,3 km/h (2 Bft)
13.03.2015 06:30 0,5 C -1,7 C 88 % 1025,1 hPa 0,0 l/m 0 min 0 min 0 W/m 6,3 km/h (2 Bft)
13.03.2015 06:32 0,5 C -1,7 C 88 % 1025,1 hPa 0,0 l/m 0 min 0 min 0 W/m 6,3 km/h (2 Bft)
13.03.2015 06:34 0,5 C -1,7 C 88 % 1025,1 hPa 0,0 l/m 0 min 0 min 0 W/m 8,4 km/h (2 Bft)
13.03.2015 06:36 0,5 C -1,7 C 88 % 1025,1 hPa 0,0 l/m 0 min 0 min 0 W/m 6,3 km/h (2 Bft)
13.03.2015 06:38 0,5 C -1,7 C 88 % 1025,0 hPa 0,0 l/m 0 min 0 min 0 W/m 8,4 km/h (2 Bft)
13.03.2015 06:40 0,5 C -1,7 C 88 % 1025,1 hPa 0,0 l/m 0 min 0 min 0 W/m 6,3 km/h (2 Bft)
13.03.2015 06:42 0,5 C -1,7 C 88 % 1025,1 hPa 0,0 l/m 0 min 0 min 0 W/m 8,4 km/h (2 Bft)
13.03.2015 06:44 0,5 C -1,7 C 88 % 1025,1 hPa 0,0 l/m 0 min 0 min 0 W/m 6,3 km/h (2 Bft)
13.03.2015 06:46 0,4 C -1,7 C 88 % 1025,1 hPa 0,0 l/m 0 min 0 min 0 W/m 4,2 km/h (1 Bft)
13.03.2015 06:48 0,4 C -1,7 C 88 % 1025,1 hPa 0,0 l/m 0 min 0 min 4 W/m 4,2 km/h (1 Bft)
13.03.2015 06:50 0,4 C -1,7 C 89 % 1025,1 hPa 0,0 l/m 0 min 0 min 5 W/m 2,1 km/h (1 Bft)
13.03.2015 06:52 0,4 C -1,7 C 89 % 1025,1 hPa 0,0 l/m 0 min 0 min 5 W/m 6,3 km/h (2 Bft)
13.03.2015 06:54 0,4 C -1,7 C 89 % 1025,1 hPa 0,0 l/m 0 min 0 min 7 W/m 4,2 km/h (1 Bft)
13.03.2015 06:56 0,4 C -1,7 C 89 % 1025,2 hPa 0,0 l/m 0 min 0 min 7 W/m 4,2 km/h (1 Bft)
13.03.2015 06:58 0,4 C -1,7 C 89 % 1025,1 hPa 0,0 l/m 0 min 0 min 8 W/m 4,2 km/h (1 Bft)
13.03.2015 07:00 0,3 C -1,7 C 89 % 1025,1 hPa 0,0 l/m 0 min 0 min 10 W/m 4,2 km/h (1 Bft)
13.03.2015 07:02 0,3 C -2,2 C 89 % 1025,0 hPa 0,0 l/m 0 min 0 min 11 W/m 4,2 km/h (1 Bft)
13.03.2015 07:04 0,3 C -2,2 C 89 % 1025,1 hPa 0,0 l/m 0 min 0 min 12 W/m 4,2 km/h (1 Bft)
13.03.2015 07:06 0,3 C -2,2 C 89 % 1025,1 hPa 0,0 l/m 2 min 0 min 13 W/m 4,2 km/h (1 Bft)
13.03.2015 07:08 0,3 C -2,2 C 89 % 1025,0 hPa 0,0 l/m 2 min 0 min 15 W/m 6,3 km/h (2 Bft)
13.03.2015 07:10 0,2 C -2,2 C 89 % 1025,1 hPa 0,0 l/m 2 min 0 min 17 W/m 4,2 km/h (1 Bft)
13.03.2015 07:12 0,2 C -2,2 C 89 % 1025,0 hPa 0,0 l/m 2 min 0 min 19 W/m 6,3 km/h (2 Bft)
13.03.2015 07:14 0,2 C -2,2 C 89 % 1025,1 hPa 0,0 l/m 2 min 0 min 21 W/m 8,4 km/h (2 Bft)
13.03.2015 07:16 0,2 C -1,7 C 89 % 1025,1 hPa 0,0 l/m 2 min 0 min 23 W/m 10,5 km/h (2 Bft)
13.03.2015 07:18 0,2 C -1,7 C 89 % 1025,0 hPa 0,0 l/m 2 min 0 min 25 W/m 12,6 km/h (3 Bft)
13.03.2015 07:20 0,2 C -1,7 C 89 % 1025,1 hPa 0,0 l/m 2 min 0 min 27 W/m 10,5 km/h (2 Bft)
13.03.2015 07:22 0,2 C -1,7 C 89 % 1025,0 hPa 0,0 l/m 2 min 0 min 31 W/m 10,5 km/h (2 Bft)
13.03.2015 07:24 0,2 C -1,7 C 89 % 1025,0 hPa 0,0 l/m 2 min 0 min 32 W/m 10,5 km/h (2 Bft)
13.03.2015 07:26 0,2 C -1,1 C 89 % 1024,9 hPa 0,0 l/m 2 min 0 min 36 W/m 10,5 km/h (2 Bft)
13.03.2015 07:28 0,2 C -1,1 C 89 % 1025,0 hPa 0,0 l/m 2 min 0 min 39 W/m 10,5 km/h (2 Bft)
13.03.2015 07:30 0,2 C -1,1 C 89 % 1025,0 hPa 0,0 l/m 2 min 0 min 42 W/m 6,3 km/h (2 Bft)
13.03.2015 07:32 0,2 C -1,1 C 90 % 1025,0 hPa 0,0 l/m 2 min 0 min 45 W/m 10,5 km/h (2 Bft)
13.03.2015 07:34 0,2 C -1,1 C 90 % 1025,0 hPa 0,0 l/m 2 min 0 min 49 W/m 12,6 km/h (3 Bft)
13.03.2015 07:36 0,2 C -0,6 C 90 % 1024,9 hPa 0,0 l/m 2 min 0 min 53 W/m 10,5 km/h (2 Bft)
13.03.2015 07:38 0,3 C -0,6 C 90 % 1024,9 hPa 0,0 l/m 2 min 0 min 58 W/m 10,5 km/h (2 Bft)
13.03.2015 07:40 0,3 C -0,6 C 90 % 1024,9 hPa 0,0 l/m 2 min 0 min 62 W/m 12,6 km/h (3 Bft)
13.03.2015 07:42 0,3 C -0,6 C 90 % 1024,9 hPa 0,0 l/m 2 min 0 min 65 W/m 6,3 km/h (2 Bft)
13.03.2015 07:44 0,4 C -0,6 C 90 % 1024,9 hPa 0,0 l/m 2 min 0 min 70 W/m 10,5 km/h (2 Bft)
13.03.2015 07:46 0,4 C -0,6 C 90 % 1025,0 hPa 0,0 l/m 2 min 0 min 74 W/m 6,3 km/h (2 Bft)
13.03.2015 07:48 0,4 C -0,6 C 91 % 1024,9 hPa 0,0 l/m 2 min 0 min 78 W/m 8,4 km/h (2 Bft)
13.03.2015 07:50 0,4 C -0,6 C 91 % 1025,0 hPa 0,0 l/m 2 min 0 min 84 W/m 12,6 km/h (3 Bft)
13.03.2015 07:52 0,5 C -0,6 C 91 % 1025,0 hPa 0,0 l/m 2 min 0 min 88 W/m 12,6 km/h (3 Bft)
13.03.2015 07:54 0,5 C -0,6 C 91 % 1025,0 hPa 0,0 l/m 2 min 0 min 94 W/m 16,7 km/h (3 Bft)
13.03.2015 07:56 0,5 C 0,0 C 91 % 1025,1 hPa 0,0 l/m 2 min 0 min 100 W/m 16,7 km/h (3 Bft)
13.03.2015 07:58 0,6 C 0,0 C 91 % 1025,1 hPa 0,0 l/m 2 min 0 min 105 W/m 14,6 km/h (3 Bft)
13.03.2015 08:00 0,6 C 0,0 C 91 % 1025,0 hPa 0,0 l/m 2 min 0 min 110 W/m 14,6 km/h (3 Bft)
13.03.2015 08:02 0,7 C 0,0 C 91 % 1025,1 hPa 0,0 l/m 2 min 0 min 114 W/m 14,6 km/h (3 Bft)
13.03.2015 08:04 0,8 C 0,0 C 91 % 1025,1 hPa 0,0 l/m 2 min 0 min 120 W/m 18,8 km/h (3 Bft)
13.03.2015 08:06 0,8 C 0,0 C 91 % 1025,1 hPa 0,0 l/m 2 min 0 min 126 W/m 18,8 km/h (3 Bft)
13.03.2015 08:08 0,9 C 0,0 C 91 % 1025,1 hPa 0,0 l/m 2 min 0 min 134 W/m 14,6 km/h (3 Bft)
13.03.2015 08:10 0,9 C 0,6 C 91 % 1025,1 hPa 0,0 l/m 2 min 0 min 140 W/m 12,6 km/h (3 Bft)
13.03.2015 08:12 1,0 C 0,6 C 91 % 1025,1 hPa 0,0 l/m 2 min 0 min 146 W/m 14,6 km/h (3 Bft)
13.03.2015 08:14 1,1 C 0,6 C 91 % 1025,1 hPa 0,0 l/m 2 min 0 min 149 W/m 16,7 km/h (3 Bft)
13.03.2015 08:16 1,1 C 0,6 C 91 % 1025,1 hPa 0,0 l/m 2 min 0 min 155 W/m 16,7 km/h (3 Bft)
13.03.2015 08:18 1,2 C 0,6 C 92 % 1025,1 hPa 0,0 l/m 2 min 0 min 162 W/m 16,7 km/h (3 Bft)
13.03.2015 08:20 1,3 C 0,6 C 92 % 1025,1 hPa 0,0 l/m 2 min 0 min 163 W/m 16,7 km/h (3 Bft)
13.03.2015 08:22 1,3 C 0,6 C 91 % 1025,1 hPa 0,0 l/m 2 min 0 min 170 W/m 10,5 km/h (2 Bft)
13.03.2015 08:24 1,4 C 0,6 C 91 % 1025,1 hPa 0,0 l/m 2 min 0 min 179 W/m 18,8 km/h (3 Bft)
13.03.2015 08:26 1,4 C 0,6 C 91 % 1025,1 hPa 0,0 l/m 2 min 0 min 184 W/m 18,8 km/h (3 Bft)
13.03.2015 08:28 1,5 C 0,6 C 91 % 1025,1 hPa 0,0 l/m 2 min 0 min 193 W/m 18,8 km/h (3 Bft)
13.03.2015 08:30 1,6 C 1,1 C 91 % 1025,1 hPa 0,0 l/m 2 min 0 min 198 W/m 14,6 km/h (3 Bft)
13.03.2015 08:32 1,6 C 1,1 C 91 % 1025,2 hPa 0,0 l/m 2 min 0 min 203 W/m 18,8 km/h (3 Bft)
13.03.2015 08:34 1,7 C 1,1 C 91 % 1025,2 hPa 0,0 l/m 2 min 0 min 208 W/m 16,7 km/h (3 Bft)
13.03.2015 08:36 1,7 C 1,1 C 91 % 1025,2 hPa 0,0 l/m 2 min 0 min 217 W/m 16,7 km/h (3 Bft)
13.03.2015 08:38 1,7 C 1,1 C 91 % 1025,2 hPa 0,0 l/m 2 min 0 min 224 W/m 16,7 km/h (3 Bft)
13.03.2015 08:40 1,8 C 1,1 C 91 % 1025,2 hPa 0,0 l/m 2 min 0 min 230 W/m 18,8 km/h (3 Bft)
13.03.2015 08:42 1,8 C 1,1 C 91 % 1025,2 hPa 0,0 l/m 2 min 0 min 235 W/m 14,6 km/h (3 Bft)
13.03.2015 08:44 1,9 C 1,1 C 91 % 1025,2 hPa 0,0 l/m 2 min 0 min 240 W/m 14,6 km/h (3 Bft)
13.03.2015 08:46 1,9 C 1,1 C 91 % 1025,1 hPa 0,0 l/m 2 min 0 min 246 W/m 16,7 km/h (3 Bft)
13.03.2015 08:48 1,9 C 1,1 C 91 % 1025,2 hPa 0,0 l/m 2 min 0 min 253 W/m 16,7 km/h (3 Bft)
13.03.2015 08:50 2,1 C 1,1 C 91 % 1025,2 hPa 0,0 l/m 2 min 0 min 258 W/m 16,7 km/h (3 Bft)
13.03.2015 08:52 2,1 C 1,7 C 90 % 1025,2 hPa 0,0 l/m 2 min 0 min 261 W/m 16,7 km/h (3 Bft)
13.03.2015 08:54 2,1 C 1,7 C 90 % 1025,2 hPa 0,0 l/m 2 min 0 min 268 W/m 18,8 km/h (3 Bft)
13.03.2015 08:56 2,2 C 1,7 C 90 % 1025,2 hPa 0,0 l/m 2 min 0 min 274 W/m 14,6 km/h (3 Bft)
13.03.2015 08:58 2,3 C 1,7 C 90 % 1025,3 hPa 0,0 l/m 2 min 0 min 278 W/m 16,7 km/h (3 Bft)
13.03.2015 09:00 2,4 C 1,7 C 90 % 1025,3 hPa 0,0 l/m 2 min 0 min 281 W/m 14,6 km/h (3 Bft)
13.03.2015 09:02 2,4 C 1,7 C 90 % 1025,2 hPa 0,0 l/m 2 min 0 min 288 W/m 20,9 km/h (4 Bft)
13.03.2015 09:04 2,6 C 1,7 C 90 % 1025,2 hPa 0,0 l/m 2 min 0 min 294 W/m 20,9 km/h (4 Bft)
13.03.2015 09:06 2,7 C 1,7 C 90 % 1025,1 hPa 0,0 l/m 2 min 0 min 299 W/m 18,8 km/h (3 Bft)
13.03.2015 09:08 2,8 C 1,7 C 89 % 1025,2 hPa 0,0 l/m 2 min 0 min 303 W/m 16,7 km/h (3 Bft)
13.03.2015 09:10 2,9 C 2,2 C 89 % 1025,2 hPa 0,0 l/m 2 min 0 min 308 W/m 16,7 km/h (3 Bft)
13.03.2015 09:12 2,9 C 2,2 C 89 % 1025,1 hPa 0,0 l/m 2 min 0 min 313 W/m 14,6 km/h (3 Bft)
13.03.2015 09:14 3,1 C 2,2 C 89 % 1025,1 hPa 0,0 l/m 2 min 0 min 317 W/m 18,8 km/h (3 Bft)
13.03.2015 09:16 3,2 C 2,2 C 88 % 1025,1 hPa 0,0 l/m 2 min 0 min 322 W/m 20,9 km/h (4 Bft)
13.03.2015 09:18 3,3 C 2,2 C 88 % 1025,0 hPa 0,0 l/m 2 min 0 min 329 W/m 20,9 km/h (4 Bft)
13.03.2015 09:20 3,4 C 2,2 C 88 % 1025,0 hPa 0,0 l/m 2 min 0 min 333 W/m 16,7 km/h (3 Bft)
13.03.2015 09:22 3,6 C 2,2 C 87 % 1024,9 hPa 0,0 l/m 2 min 0 min 337 W/m 20,9 km/h (4 Bft)
13.03.2015 09:24 3,7 C 2,2 C 87 % 1025,0 hPa 0,0 l/m 2 min 0 min 343 W/m 18,8 km/h (3 Bft)
13.03.2015 09:26 3,8 C 2,8 C 86 % 1024,9 hPa 0,0 l/m 2 min 0 min 347 W/m 18,8 km/h (3 Bft)
13.03.2015 09:28 3,9 C 2,8 C 86 % 1024,9 hPa 0,0 l/m 2 min 0 min 353 W/m 14,6 km/h (3 Bft)
13.03.2015 09:30 3,9 C 2,8 C 85 % 1024,9 hPa 0,0 l/m 2 min 0 min 360 W/m 18,8 km/h (3 Bft)
13.03.2015 09:32 4,1 C 2,8 C 85 % 1024,9 hPa 0,0 l/m 2 min 0 min 365 W/m 16,7 km/h (3 Bft)
13.03.2015 09:34 4,2 C 2,8 C 84 % 1024,9 hPa 0,0 l/m 2 min 0 min 369 W/m 20,9 km/h (4 Bft)
13.03.2015 09:36 4,2 C 2,8 C 84 % 1024,9 hPa 0,0 l/m 2 min 0 min 372 W/m 18,8 km/h (3 Bft)
13.03.2015 09:38 4,3 C 2,8 C 83 % 1024,8 hPa 0,0 l/m 2 min 0 min 376 W/m 18,8 km/h (3 Bft)
13.03.2015 09:40 4,4 C 2,8 C 83 % 1024,8 hPa 0,0 l/m 2 min 0 min 381 W/m 16,7 km/h (3 Bft)
13.03.2015 09:42 4,5 C 3,3 C 83 % 1024,8 hPa 0,0 l/m 2 min 0 min 388 W/m 14,6 km/h (3 Bft)
13.03.2015 09:44 4,6 C 3,3 C 82 % 1024,9 hPa 0,0 l/m 2 min 0 min 392 W/m 16,7 km/h (3 Bft)
13.03.2015 09:46 4,7 C 3,3 C 82 % 1024,8 hPa 0,0 l/m 2 min 0 min 397 W/m 16,7 km/h (3 Bft)
13.03.2015 09:48 4,9 C 3,3 C 82 % 1024,8 hPa 0,0 l/m 2 min 0 min 402 W/m 12,6 km/h (3 Bft)
13.03.2015 09:50 5,0 C 3,3 C 81 % 1024,8 hPa 0,0 l/m 2 min 0 min 408 W/m 16,7 km/h (3 Bft)
13.03.2015 09:52 5,1 C 3,3 C 81 % 1024,8 hPa 0,0 l/m 2 min 0 min 410 W/m 12,6 km/h (3 Bft)
13.03.2015 09:54 5,2 C 3,9 C 81 % 1024,8 hPa 0,0 l/m 2 min 0 min 414 W/m 8,4 km/h (2 Bft)
13.03.2015 09:56 5,4 C 3,9 C 81 % 1024,9 hPa 0,0 l/m 2 min 0 min 420 W/m 10,5 km/h (2 Bft)
13.03.2015 09:58 5,5 C 3,9 C 80 % 1024,7 hPa 0,0 l/m 2 min 0 min 418 W/m 6,3 km/h (2 Bft)
13.03.2015 10:00 5,6 C 3,9 C 80 % 1024,8 hPa 0,0 l/m 2 min 0 min 432 W/m 10,5 km/h (2 Bft)
13.03.2015 10:02 5,7 C 4,4 C 79 % 1024,9 hPa 0,0 l/m 2 min 0 min 437 W/m 14,6 km/h (3 Bft)
13.03.2015 10:04 5,9 C 4,4 C 78 % 1024,7 hPa 0,0 l/m 2 min 0 min 440 W/m 14,6 km/h (3 Bft)
13.03.2015 10:06 5,9 C 4,4 C 77 % 1024,7 hPa 0,0 l/m 2 min 0 min 447 W/m 18,8 km/h (3 Bft)
13.03.2015 10:08 6,1 C 4,4 C 76 % 1024,7 hPa 0,0 l/m 2 min 0 min 447 W/m 12,6 km/h (3 Bft)
13.03.2015 10:10 6,2 C 4,4 C 76 % 1024,7 hPa 0,0 l/m 2 min 0 min 451 W/m 16,7 km/h (3 Bft)
13.03.2015 10:12 6,3 C 5,0 C 75 % 1024,8 hPa 0,0 l/m 2 min 0 min 458 W/m 12,6 km/h (3 Bft)
13.03.2015 10:14 6,4 C 5,0 C 75 % 1024,7 hPa 0,0 l/m 2 min 0 min 459 W/m 14,6 km/h (3 Bft)
13.03.2015 10:16 6,4 C 5,0 C 74 % 1024,7 hPa 0,0 l/m 2 min 0 min 465 W/m 18,8 km/h (3 Bft)
13.03.2015 10:18 6,5 C 5,0 C 73 % 1024,7 hPa 0,0 l/m 2 min 0 min 464 W/m 18,8 km/h (3 Bft)
13.03.2015 10:20 6,6 C 5,0 C 73 % 1024,7 hPa 0,0 l/m 2 min 0 min 470 W/m 20,9 km/h (4 Bft)
13.03.2015 10:22 6,7 C 5,0 C 73 % 1024,7 hPa 0,0 l/m 2 min 0 min 477 W/m 23,0 km/h (4 Bft)
13.03.2015 10:24 6,7 C 5,0 C 72 % 1024,7 hPa 0,0 l/m 2 min 0 min 482 W/m 18,8 km/h (3 Bft)
13.03.2015 10:26 6,8 C 5,0 C 71 % 1024,7 hPa 0,0 l/m 2 min 0 min 483 W/m 14,6 km/h (3 Bft)
13.03.2015 10:28 6,9 C 5,0 C 72 % 1024,7 hPa 0,0 l/m 2 min 0 min 488 W/m 18,8 km/h (3 Bft)
13.03.2015 10:30 7,0 C 5,6 C 71 % 1024,7 hPa 0,0 l/m 2 min 0 min 493 W/m 16,7 km/h (3 Bft)
13.03.2015 10:32 7,1 C 5,6 C 71 % 1024,6 hPa 0,0 l/m 2 min 0 min 493 W/m 16,7 km/h (3 Bft)
13.03.2015 10:34 7,2 C 5,6 C 70 % 1024,6 hPa 0,0 l/m 2 min 0 min 495 W/m 16,7 km/h (3 Bft)
13.03.2015 10:36 7,3 C 5,6 C 70 % 1024,6 hPa 0,0 l/m 2 min 0 min 501 W/m 16,7 km/h (3 Bft)
13.03.2015 10:38 7,4 C 6,1 C 71 % 1024,6 hPa 0,0 l/m 2 min 0 min 503 W/m 14,6 km/h (3 Bft)
13.03.2015 10:40 7,4 C 6,1 C 70 % 1024,6 hPa 0,0 l/m 2 min 0 min 509 W/m 16,7 km/h (3 Bft)
13.03.2015 10:42 7,6 C 6,1 C 70 % 1024,7 hPa 0,0 l/m 2 min 0 min 512 W/m 20,9 km/h (4 Bft)
13.03.2015 10:44 7,6 C 6,1 C 69 % 1024,5 hPa 0,0 l/m 2 min 0 min 518 W/m 14,6 km/h (3 Bft)
13.03.2015 10:46 7,7 C 6,1 C 69 % 1024,6 hPa 0,0 l/m 2 min 0 min 520 W/m 20,9 km/h (4 Bft)
13.03.2015 10:48 7,7 C 5,6 C 68 % 1024,6 hPa 0,0 l/m 2 min 0 min 514 W/m 18,8 km/h (3 Bft)
13.03.2015 10:50 7,7 C 5,6 C 68 % 1024,5 hPa 0,0 l/m 2 min 0 min 523 W/m 20,9 km/h (4 Bft)
13.03.2015 10:52 7,7 C 5,6 C 68 % 1024,6 hPa 0,0 l/m 2 min 0 min 530 W/m 23,0 km/h (4 Bft)
13.03.2015 10:54 7,8 C 5,6 C 68 % 1024,5 hPa 0,0 l/m 2 min 0 min 531 W/m 18,8 km/h (3 Bft)
13.03.2015 10:56 7,8 C 5,6 C 68 % 1024,5 hPa 0,0 l/m 2 min 0 min 534 W/m 14,6 km/h (3 Bft)
13.03.2015 10:58 7,9 C 6,1 C 68 % 1024,4 hPa 0,0 l/m 2 min 0 min 530 W/m 14,6 km/h (3 Bft)
13.03.2015 11:00 8,0 C 6,1 C 69 % 1024,4 hPa 0,0 l/m 2 min 0 min 524 W/m 14,6 km/h (3 Bft)
13.03.2015 11:02 8,1 C 6,1 C 68 % 1024,4 hPa 0,0 l/m 2 min 0 min 543 W/m 20,9 km/h (4 Bft)
13.03.2015 11:04 8,1 C 6,1 C 68 % 1024,5 hPa 0,0 l/m 2 min 0 min 547 W/m 16,7 km/h (3 Bft)
13.03.2015 11:06 8,2 C 6,1 C 67 % 1024,4 hPa 0,0 l/m 2 min 0 min 550 W/m 18,8 km/h (3 Bft)
13.03.2015 11:08 8,3 C 6,1 C 67 % 1024,4 hPa 0,0 l/m 2 min 0 min 547 W/m 18,8 km/h (3 Bft)
13.03.2015 11:10 8,3 C 6,1 C 67 % 1024,5 hPa 0,0 l/m 2 min 0 min 559 W/m 18,8 km/h (3 Bft)
13.03.2015 11:12 8,4 C 6,7 C 66 % 1024,5 hPa 0,0 l/m 2 min 0 min 563 W/m 14,6 km/h (3 Bft)
13.03.2015 11:14 8,4 C 6,1 C 66 % 1024,4 hPa 0,0 l/m 2 min 0 min 564 W/m 16,7 km/h (3 Bft)
13.03.2015 11:16 8,4 C 6,1 C 66 % 1024,4 hPa 0,0 l/m 2 min 0 min 570 W/m 18,8 km/h (3 Bft)
13.03.2015 11:18 8,5 C 6,1 C 66 % 1024,5 hPa 0,0 l/m 2 min 0 min 577 W/m 16,7 km/h (3 Bft)
13.03.2015 11:20 8,5 C 6,1 C 65 % 1024,6 hPa 0,0 l/m 2 min 0 min 581 W/m 23,0 km/h (4 Bft)
13.03.2015 11:22 8,5 C 6,1 C 65 % 1024,5 hPa 0,0 l/m 2 min 0 min 576 W/m 18,8 km/h (3 Bft)
13.03.2015 11:24 8,5 C 6,1 C 65 % 1024,4 hPa 0,0 l/m 2 min 0 min 590 W/m 14,6 km/h (3 Bft)
13.03.2015 11:26 8,6 C 6,7 C 65 % 1024,4 hPa 0,0 l/m 2 min 0 min 628 W/m 18,8 km/h (3 Bft)
13.03.2015 11:28 8,6 C 6,7 C 65 % 1024,4 hPa 0,0 l/m 2 min 0 min 543 W/m 16,7 km/h (3 Bft)
13.03.2015 11:30 8,6 C 6,7 C 65 % 1024,3 hPa 0,0 l/m 2 min 0 min 297 W/m 16,7 km/h (3 Bft)
13.03.2015 11:32 8,6 C 6,7 C 65 % 1024,3 hPa 0,0 l/m 2 min 0 min 245 W/m 16,7 km/h (3 Bft)
13.03.2015 11:34 8,5 C 6,7 C 65 % 1024,4 hPa 0,0 l/m 2 min 0 min 242 W/m 16,7 km/h (3 Bft)
13.03.2015 11:36 8,4 C 6,1 C 64 % 1024,3 hPa 0,0 l/m 2 min 0 min 303 W/m 8,4 km/h (2 Bft)
13.03.2015 11:38 8,4 C 6,7 C 65 % 1024,3 hPa 0,0 l/m 2 min 0 min 394 W/m 12,6 km/h (3 Bft)
13.03.2015 11:40 8,4 C 7,2 C 66 % 1024,3 hPa 0,0 l/m 2 min 0 min 387 W/m 10,5 km/h (2 Bft)
13.03.2015 11:42 8,4 C 7,2 C 66 % 1024,3 hPa 0,0 l/m 2 min 0 min 343 W/m 14,6 km/h (3 Bft)
13.03.2015 11:44 8,3 C 7,2 C 66 % 1024,3 hPa 0,0 l/m 2 min 0 min 365 W/m 14,6 km/h (3 Bft)
13.03.2015 11:46 8,3 C 7,8 C 66 % 1024,3 hPa 0,0 l/m 2 min 0 min 363 W/m 23,0 km/h (4 Bft)
13.03.2015 11:48 8,3 C 7,8 C 66 % 1024,3 hPa 0,0 l/m 2 min 0 min 303 W/m 14,6 km/h (3 Bft)
13.03.2015 11:50 8,3 C 7,8 C 66 % 1024,3 hPa 0,0 l/m 2 min 0 min 301 W/m 14,6 km/h (3 Bft)
13.03.2015 11:52 8,3 C 7,2 C 65 % 1024,3 hPa 0,0 l/m 2 min 0 min 333 W/m 23,0 km/h (4 Bft)
13.03.2015 11:54 8,2 C 7,2 C 65 % 1024,3 hPa 0,0 l/m 2 min 0 min 270 W/m 18,8 km/h (3 Bft)
13.03.2015 11:56 8,2 C 7,2 C 66 % 1024,3 hPa 0,0 l/m 2 min 0 min 264 W/m 14,6 km/h (3 Bft)
13.03.2015 11:58 8,1 C 7,2 C 65 % 1024,2 hPa 0,0 l/m 2 min 0 min 259 W/m 16,7 km/h (3 Bft)
13.03.2015 12:00 8,1 C 7,2 C 65 % 1024,3 hPa 0,0 l/m 2 min 0 min 266 W/m 12,6 km/h (3 Bft)
13.03.2015 12:04 8,0 C 7,8 C 67 % 1024,2 hPa 0,0 l/m 2 min 0 min 281 W/m 12,6 km/h (3 Bft)
13.03.2015 12:06 8,0 C 7,8 C 66 % 1024,2 hPa 0,0 l/m 2 min 0 min 288 W/m 18,8 km/h (3 Bft)
13.03.2015 12:08 7,9 C 8,3 C 66 % 1024,2 hPa 0,0 l/m 2 min 0 min 377 W/m 12,6 km/h (3 Bft)
13.03.2015 12:10 8,0 C 8,3 C 67 % 1024,1 hPa 0,0 l/m 2 min 0 min 703 W/m 12,6 km/h (3 Bft)
13.03.2015 12:12 8,1 C 8,9 C 67 % 1024,1 hPa 0,0 l/m 2 min 0 min 423 W/m 10,5 km/h (2 Bft)
13.03.2015 12:14 8,1 C 8,9 C 67 % 1024,1 hPa 0,0 l/m 2 min 0 min 352 W/m 10,5 km/h (2 Bft)
13.03.2015 12:16 8,2 C 8,9 C 67 % 1024,1 hPa 0,0 l/m 2 min 0 min 296 W/m 10,5 km/h (2 Bft)
13.03.2015 12:18 8,2 C 8,9 C 67 % 1024,1 hPa 0,0 l/m 2 min 0 min 297 W/m 6,3 km/h (2 Bft)
13.03.2015 12:20 8,2 C 8,9 C 67 % 1024,1 hPa 0,0 l/m 2 min 0 min 277 W/m 25,1 km/h (4 Bft)
13.03.2015 12:22 8,3 C 8,3 C 66 % 1024,1 hPa 0,0 l/m 0 min 0 min 247 W/m 23,0 km/h (4 Bft)
13.03.2015 12:24 8,3 C 7,8 C 65 % 1024,1 hPa 0,0 l/m 0 min 0 min 237 W/m 23,0 km/h (4 Bft)
13.03.2015 12:26 8,3 C 7,8 C 65 % 1024,0 hPa 0,0 l/m 0 min 0 min 236 W/m 16,7 km/h (3 Bft)
13.03.2015 12:28 8,3 C 8,3 C 66 % 1024,1 hPa 0,0 l/m 0 min 0 min 232 W/m 8,4 km/h (2 Bft)
13.03.2015 12:30 8,3 C 8,3 C 66 % 1024,1 hPa 0,0 l/m 0 min 0 min 229 W/m 14,6 km/h (3 Bft)
13.03.2015 12:32 8,3 C 8,3 C 66 % 1024,0 hPa 0,0 l/m 0 min 0 min 222 W/m 14,6 km/h (3 Bft)
13.03.2015 12:34 8,3 C 7,8 C 66 % 1024,0 hPa 0,0 l/m 0 min 0 min 220 W/m 14,6 km/h (3 Bft)
13.03.2015 12:36 8,3 C 8,3 C 66 % 1023,9 hPa 0,0 l/m 0 min 0 min 230 W/m 14,6 km/h (3 Bft)
13.03.2015 12:38 8,3 C 8,3 C 66 % 1023,9 hPa 0,0 l/m 0 min 0 min 230 W/m 14,6 km/h (3 Bft)
13.03.2015 12:40 8,3 C 8,3 C 66 % 1023,8 hPa 0,0 l/m 0 min 0 min 231 W/m 8,4 km/h (2 Bft)
13.03.2015 12:42 8,3 C 8,3 C 66 % 1023,8 hPa 0,0 l/m 0 min 0 min 241 W/m 10,5 km/h (2 Bft)
13.03.2015 12:44 8,3 C 7,8 C 65 % 1023,7 hPa 0,0 l/m 0 min 0 min 239 W/m 12,6 km/h (3 Bft)
13.03.2015 12:46 8,2 C 7,8 C 65 % 1023,7 hPa 0,0 l/m 0 min 0 min 230 W/m 10,5 km/h (2 Bft)
13.03.2015 12:48 8,2 C 7,8 C 65 % 1023,7 hPa 0,0 l/m 0 min 0 min 225 W/m 16,7 km/h (3 Bft)
13.03.2015 12:50 8,2 C 7,8 C 65 % 1023,7 hPa 0,0 l/m 0 min 0 min 220 W/m 10,5 km/h (2 Bft)
13.03.2015 12:52 8,2 C 7,8 C 65 % 1023,7 hPa 0,0 l/m 0 min 0 min 214 W/m 12,6 km/h (3 Bft)
13.03.2015 12:54 8,2 C 7,8 C 65 % 1023,7 hPa 0,0 l/m 0 min 0 min 216 W/m 10,5 km/h (2 Bft)
13.03.2015 12:56 8,2 C 7,8 C 65 % 1023,6 hPa 0,0 l/m 0 min 0 min 220 W/m 16,7 km/h (3 Bft)
13.03.2015 12:58 8,2 C 7,8 C 65 % 1023,7 hPa 0,0 l/m 0 min 0 min 220 W/m 10,5 km/h (2 Bft)
13.03.2015 13:00 8,2 C 7,8 C 65 % 1023,6 hPa 0,0 l/m 0 min 0 min 220 W/m 10,5 km/h (2 Bft)
13.03.2015 13:02 8,2 C 7,8 C 66 % 1023,6 hPa 0,0 l/m 0 min 0 min 220 W/m 23,0 km/h (4 Bft)
13.03.2015 13:04 8,2 C 8,3 C 66 % 1023,6 hPa 0,0 l/m 0 min 0 min 218 W/m 18,8 km/h (3 Bft)
13.03.2015 13:06 8,2 C 8,3 C 66 % 1023,6 hPa 0,0 l/m 0 min 0 min 218 W/m 12,6 km/h (3 Bft)
13.03.2015 13:08 8,2 C 8,3 C 66 % 1023,5 hPa 0,0 l/m 0 min 0 min 217 W/m 16,7 km/h (3 Bft)
13.03.2015 13:10 8,2 C 8,3 C 66 % 1023,5 hPa 0,0 l/m 0 min 0 min 214 W/m 18,8 km/h (3 Bft)
13.03.2015 13:12 8,2 C 8,3 C 66 % 1023,5 hPa 0,0 l/m 0 min 0 min 215 W/m 12,6 km/h (3 Bft)
13.03.2015 13:14 8,3 C 8,3 C 66 % 1023,6 hPa 0,0 l/m 0 min 0 min 220 W/m 16,7 km/h (3 Bft)
13.03.2015 13:16 8,3 C 8,3 C 66 % 1023,6 hPa 0,0 l/m 0 min 0 min 228 W/m 18,8 km/h (3 Bft)
13.03.2015 13:18 8,2 C 8,3 C 66 % 1023,5 hPa 0,0 l/m 0 min 0 min 222 W/m 18,8 km/h (3 Bft)
13.03.2015 13:20 8,3 C 8,3 C 66 % 1023,4 hPa 0,0 l/m 0 min 0 min 225 W/m 14,6 km/h (3 Bft)
13.03.2015 13:22 8,2 C 8,3 C 66 % 1023,4 hPa 0,0 l/m 0 min 0 min 234 W/m 18,8 km/h (3 Bft)
13.03.2015 13:24 8,2 C 8,3 C 66 % 1023,4 hPa 0,0 l/m 0 min 0 min 238 W/m 14,6 km/h (3 Bft)
13.03.2015 13:26 8,2 C 8,3 C 66 % 1023,4 hPa 0,0 l/m 0 min 0 min 237 W/m 14,6 km/h (3 Bft)
13.03.2015 13:28 8,2 C 8,3 C 66 % 1023,3 hPa 0,0 l/m 0 min 0 min 230 W/m 18,8 km/h (3 Bft)
13.03.2015 13:30 8,2 C 8,3 C 66 % 1023,4 hPa 0,0 l/m 0 min 0 min 216 W/m 18,8 km/h (3 Bft)
13.03.2015 13:32 8,2 C 8,3 C 66 % 1023,4 hPa 0,0 l/m 0 min 0 min 214 W/m 20,9 km/h (4 Bft)
13.03.2015 13:34 8,2 C 8,3 C 67 % 1023,4 hPa 0,0 l/m 0 min 0 min 222 W/m 20,9 km/h (4 Bft)
13.03.2015 13:36 8,2 C 8,3 C 67 % 1023,3 hPa 0,0 l/m 0 min 0 min 230 W/m 20,9 km/h (4 Bft)
13.03.2015 13:38 8,2 C 8,3 C 67 % 1023,2 hPa 0,0 l/m 0 min 0 min 232 W/m 16,7 km/h (3 Bft)
13.03.2015 13:40 8,2 C 8,3 C 67 % 1023,2 hPa 0,0 l/m 0 min 0 min 230 W/m 16,7 km/h (3 Bft)
13.03.2015 13:42 8,3 C 8,3 C 67 % 1023,2 hPa 0,0 l/m 0 min 0 min 231 W/m 16,7 km/h (3 Bft)
13.03.2015 13:44 8,3 C 8,3 C 66 % 1023,2 hPa 0,0 l/m 0 min 0 min 224 W/m 18,8 km/h (3 Bft)
13.03.2015 13:46 8,3 C 8,3 C 66 % 1023,1 hPa 0,0 l/m 0 min 0 min 221 W/m 18,8 km/h (3 Bft)
13.03.2015 13:48 8,3 C 8,3 C 66 % 1023,1 hPa 0,0 l/m 0 min 0 min 224 W/m 23,0 km/h (4 Bft)
13.03.2015 13:50 8,3 C 8,9 C 66 % 1023,2 hPa 0,0 l/m 0 min 0 min 222 W/m 20,9 km/h (4 Bft)
13.03.2015 13:52 8,3 C 8,9 C 66 % 1023,2 hPa 0,0 l/m 0 min 0 min 224 W/m 18,8 km/h (3 Bft)
13.03.2015 13:54 8,3 C 8,3 C 65 % 1023,1 hPa 0,0 l/m 0 min 0 min 221 W/m 16,7 km/h (3 Bft)
13.03.2015 13:56 8,3 C 8,3 C 64 % 1023,1 hPa 0,0 l/m 0 min 0 min 223 W/m 16,7 km/h (3 Bft)
13.03.2015 13:58 8,3 C 8,3 C 64 % 1023,1 hPa 0,0 l/m 0 min 0 min 229 W/m 20,9 km/h (4 Bft)
13.03.2015 14:00 8,3 C 8,9 C 64 % 1023,1 hPa 0,0 l/m 2 min 0 min 259 W/m 18,8 km/h (3 Bft)
13.03.2015 14:02 8,4 C 8,9 C 64 % 1023,1 hPa 0,0 l/m 2 min 0 min 283 W/m 23,0 km/h (4 Bft)
13.03.2015 14:04 8,4 C 8,9 C 64 % 1023,1 hPa 0,0 l/m 2 min 0 min 300 W/m 27,2 km/h (4 Bft)
13.03.2015 14:06 8,5 C 9,4 C 63 % 1023,0 hPa 0,0 l/m 2 min 0 min 395 W/m 10,5 km/h (2 Bft)
13.03.2015 14:08 8,6 C 9,4 C 62 % 1023,1 hPa 0,0 l/m 2 min 0 min 355 W/m 16,7 km/h (3 Bft)
13.03.2015 14:10 8,7 C 9,4 C 62 % 1023,0 hPa 0,0 l/m 2 min 0 min 327 W/m 16,7 km/h (3 Bft)
13.03.2015 14:12 8,8 C 9,4 C 61 % 1023,0 hPa 0,0 l/m 2 min 0 min 327 W/m 18,8 km/h (3 Bft)
13.03.2015 14:14 8,8 C 9,4 C 61 % 1022,9 hPa 0,0 l/m 2 min 0 min 320 W/m 18,8 km/h (3 Bft)
13.03.2015 14:16 8,9 C 9,4 C 61 % 1022,8 hPa 0,0 l/m 2 min 0 min 318 W/m 20,9 km/h (4 Bft)
13.03.2015 14:18 8,9 C 9,4 C 60 % 1022,9 hPa 0,0 l/m 2 min 0 min 327 W/m 20,9 km/h (4 Bft)
13.03.2015 14:20 9,0 C 10,0 C 60 % 1022,9 hPa 0,0 l/m 2 min 0 min 485 W/m 20,9 km/h (4 Bft)
13.03.2015 14:22 9,1 C 10,0 C 60 % 1022,9 hPa 0,0 l/m 2 min 0 min 476 W/m 20,9 km/h (4 Bft)
13.03.2015 14:24 9,1 C 10,0 C 60 % 1023,0 hPa 0,0 l/m 2 min 0 min 350 W/m 14,6 km/h (3 Bft)
13.03.2015 14:26 9,2 C 10,6 C 60 % 1023,0 hPa 0,0 l/m 2 min 0 min 354 W/m 12,6 km/h (3 Bft)
13.03.2015 14:28 9,3 C 11,7 C 60 % 1023,0 hPa 0,0 l/m 2 min 0 min 573 W/m 12,6 km/h (3 Bft)
13.03.2015 14:30 9,4 C 13,3 C 61 % 1022,9 hPa 0,0 l/m 2 min 0 min 688 W/m 6,3 km/h (2 Bft)
13.03.2015 14:32 9,6 C 14,4 C 61 % 1022,9 hPa 0,0 l/m 2 min 0 min 684 W/m 27,2 km/h (4 Bft)
13.03.2015 14:34 9,7 C 13,9 C 60 % 1022,9 hPa 0,0 l/m 2 min 0 min 670 W/m 18,8 km/h (3 Bft)
13.03.2015 14:36 9,8 C 13,9 C 59 % 1022,8 hPa 0,0 l/m 2 min 0 min 567 W/m 14,6 km/h (3 Bft)
13.03.2015 14:38 9,9 C 12,2 C 58 % 1022,8 hPa 0,0 l/m 2 min 0 min 390 W/m 16,7 km/h (3 Bft)
13.03.2015 14:40 9,9 C 11,7 C 59 % 1022,8 hPa 0,0 l/m 2 min 0 min 379 W/m 16,7 km/h (3 Bft)
13.03.2015 14:42 9,9 C 11,7 C 58 % 1022,8 hPa 0,0 l/m 2 min 0 min 394 W/m 12,6 km/h (3 Bft)
13.03.2015 14:44 9,9 C 11,1 C 58 % 1022,7 hPa 0,0 l/m 2 min 0 min 318 W/m 14,6 km/h (3 Bft)
13.03.2015 14:46 9,9 C 10,6 C 58 % 1022,7 hPa 0,0 l/m 2 min 0 min 364 W/m 18,8 km/h (3 Bft)
13.03.2015 14:48 9,9 C 11,1 C 58 % 1022,7 hPa 0,0 l/m 2 min 0 min 346 W/m 14,6 km/h (3 Bft)
13.03.2015 14:50 9,9 C 10,6 C 57 % 1022,7 hPa 0,0 l/m 2 min 0 min 323 W/m 16,7 km/h (3 Bft)
13.03.2015 14:52 9,9 C 10,6 C 57 % 1022,7 hPa 0,0 l/m 2 min 0 min 282 W/m 14,6 km/h (3 Bft)
13.03.2015 14:54 9,9 C 10,0 C 57 % 1022,7 hPa 0,0 l/m 2 min 0 min 276 W/m 12,6 km/h (3 Bft)
13.03.2015 14:56 9,9 C 10,0 C 58 % 1022,7 hPa 0,0 l/m 2 min 0 min 283 W/m 16,7 km/h (3 Bft)
13.03.2015 14:58 9,9 C 10,6 C 58 % 1022,7 hPa 0,0 l/m 2 min 0 min 306 W/m 18,8 km/h (3 Bft)
13.03.2015 15:00 9,8 C 10,6 C 58 % 1022,7 hPa 0,0 l/m 2 min 0 min 301 W/m 16,7 km/h (3 Bft)
13.03.2015 15:02 9,8 C 10,0 C 58 % 1022,6 hPa 0,0 l/m 2 min 0 min 309 W/m 14,6 km/h (3 Bft)
13.03.2015 15:04 9,8 C 10,6 C 58 % 1022,6 hPa 0,0 l/m 2 min 0 min 270 W/m 14,6 km/h (3 Bft)
13.03.2015 15:06 9,8 C 10,0 C 57 % 1022,6 hPa 0,0 l/m 2 min 0 min 244 W/m 14,6 km/h (3 Bft)
13.03.2015 15:08 9,8 C 10,0 C 57 % 1022,6 hPa 0,0 l/m 2 min 0 min 250 W/m 29,3 km/h (5 Bft)
13.03.2015 15:10 9,7 C 9,4 C 56 % 1022,7 hPa 0,0 l/m 2 min 0 min 254 W/m 23,0 km/h (4 Bft)
13.03.2015 15:12 9,7 C 9,4 C 57 % 1022,7 hPa 0,0 l/m 2 min 0 min 232 W/m 23,0 km/h (4 Bft)
13.03.2015 15:14 9,6 C 8,9 C 56 % 1022,7 hPa 0,0 l/m 2 min 0 min 225 W/m 23,0 km/h (4 Bft)
13.03.2015 15:16 9,5 C 8,9 C 56 % 1022,6 hPa 0,0 l/m 2 min 0 min 235 W/m 16,7 km/h (3 Bft)
13.03.2015 15:18 9,5 C 8,9 C 56 % 1022,6 hPa 0,0 l/m 2 min 0 min 237 W/m 25,1 km/h (4 Bft)
13.03.2015 15:20 9,4 C 9,4 C 57 % 1022,7 hPa 0,0 l/m 2 min 0 min 239 W/m 16,7 km/h (3 Bft)
13.03.2015 15:22 9,4 C 9,4 C 57 % 1022,6 hPa 0,0 l/m 2 min 0 min 229 W/m 10,5 km/h (2 Bft)
13.03.2015 15:24 9,4 C 9,4 C 58 % 1022,7 hPa 0,0 l/m 2 min 0 min 205 W/m 12,6 km/h (3 Bft)
13.03.2015 15:26 9,4 C 8,9 C 57 % 1022,7 hPa 0,0 l/m 2 min 0 min 193 W/m 18,8 km/h (3 Bft)
13.03.2015 15:28 9,4 C 8,9 C 57 % 1022,7 hPa 0,0 l/m 2 min 0 min 200 W/m 16,7 km/h (3 Bft)
13.03.2015 15:30 9,4 C 8,9 C 57 % 1022,6 hPa 0,0 l/m 2 min 0 min 188 W/m 20,9 km/h (4 Bft)
13.03.2015 15:32 9,4 C 8,9 C 57 % 1022,7 hPa 0,0 l/m 2 min 0 min 190 W/m 14,6 km/h (3 Bft)
13.03.2015 15:34 9,4 C 8,9 C 57 % 1022,7 hPa 0,0 l/m 2 min 0 min 197 W/m 12,6 km/h (3 Bft)
13.03.2015 15:36 9,4 C 9,4 C 58 % 1022,7 hPa 0,0 l/m 2 min 0 min 245 W/m 14,6 km/h (3 Bft)
13.03.2015 15:38 9,4 C 9,4 C 58 % 1022,7 hPa 0,0 l/m 2 min 0 min 436 W/m 25,1 km/h (4 Bft)
13.03.2015 15:40 9,5 C 9,4 C 58 % 1022,6 hPa 0,0 l/m 2 min 0 min 209 W/m 23,0 km/h (4 Bft)
13.03.2015 15:42 9,5 C 9,4 C 57 % 1022,7 hPa 0,0 l/m 2 min 0 min 189 W/m 18,8 km/h (3 Bft)
13.03.2015 15:44 9,5 C 8,9 C 56 % 1022,7 hPa 0,0 l/m 0 min 0 min 163 W/m 18,8 km/h (3 Bft)
13.03.2015 15:46 9,5 C 8,9 C 57 % 1022,7 hPa 0,0 l/m 0 min 0 min 152 W/m 20,9 km/h (4 Bft)
13.03.2015 15:48 9,5 C 8,9 C 57 % 1022,7 hPa 0,0 l/m 0 min 0 min 159 W/m 23,0 km/h (4 Bft)
13.03.2015 15:50 9,5 C 8,9 C 56 % 1022,7 hPa 0,0 l/m 2 min 0 min 185 W/m 18,8 km/h (3 Bft)
13.03.2015 15:52 9,4 C 8,9 C 56 % 1022,7 hPa 0,0 l/m 2 min 0 min 235 W/m 20,9 km/h (4 Bft)
13.03.2015 15:54 9,5 C 9,4 C 57 % 1022,7 hPa 0,0 l/m 2 min 0 min 370 W/m 18,8 km/h (3 Bft)
13.03.2015 15:56 9,6 C 9,4 C 56 % 1022,6 hPa 0,0 l/m 2 min 0 min 264 W/m 16,7 km/h (3 Bft)
13.03.2015 15:58 9,6 C 9,4 C 56 % 1022,6 hPa 0,0 l/m 2 min 0 min 215 W/m 16,7 km/h (3 Bft)
13.03.2015 16:00 9,6 C 9,4 C 56 % 1022,6 hPa 0,0 l/m 2 min 0 min 348 W/m 18,8 km/h (3 Bft)
13.03.2015 16:02 9,7 C 9,4 C 56 % 1022,6 hPa 0,0 l/m 2 min 0 min 335 W/m 20,9 km/h (4 Bft)
13.03.2015 16:04 9,8 C 8,9 C 55 % 1022,6 hPa 0,0 l/m 2 min 0 min 318 W/m 23,0 km/h (4 Bft)
13.03.2015 16:06 9,8 C 8,9 C 55 % 1022,6 hPa 0,0 l/m 2 min 0 min 225 W/m 20,9 km/h (4 Bft)
13.03.2015 16:08 9,8 C 8,9 C 55 % 1022,6 hPa 0,0 l/m 2 min 0 min 238 W/m 23,0 km/h (4 Bft)
13.03.2015 16:10 9,8 C 8,9 C 55 % 1022,6 hPa 0,0 l/m 2 min 0 min 288 W/m 27,2 km/h (4 Bft)
13.03.2015 16:12 9,8 C 8,9 C 55 % 1022,6 hPa 0,0 l/m 2 min 0 min 307 W/m 27,2 km/h (4 Bft)
13.03.2015 16:14 9,9 C 8,3 C 55 % 1022,6 hPa 0,0 l/m 2 min 0 min 298 W/m 23,0 km/h (4 Bft)
13.03.2015 16:16 9,9 C 8,3 C 54 % 1022,6 hPa 0,0 l/m 2 min 0 min 286 W/m 23,0 km/h (4 Bft)
13.03.2015 16:18 9,9 C 8,3 C 53 % 1022,6 hPa 0,0 l/m 2 min 0 min 290 W/m 20,9 km/h (4 Bft)
13.03.2015 16:20 9,9 C 8,3 C 53 % 1022,6 hPa 0,0 l/m 2 min 0 min 285 W/m 27,2 km/h (4 Bft)
13.03.2015 16:22 9,9 C 8,3 C 53 % 1022,5 hPa 0,0 l/m 2 min 0 min 278 W/m 23,0 km/h (4 Bft)
13.03.2015 16:24 10,0 C 8,3 C 53 % 1022,5 hPa 0,0 l/m 2 min 0 min 272 W/m 27,2 km/h (4 Bft)
13.03.2015 16:26 9,9 C 8,3 C 53 % 1022,5 hPa 0,0 l/m 2 min 0 min 271 W/m 29,3 km/h (5 Bft)
13.03.2015 16:28 9,9 C 8,3 C 52 % 1022,6 hPa 0,0 l/m 2 min 0 min 256 W/m 29,3 km/h (5 Bft)
13.03.2015 16:30 9,9 C 7,8 C 53 % 1022,6 hPa 0,0 l/m 2 min 0 min 235 W/m 23,0 km/h (4 Bft)
13.03.2015 16:32 9,8 C 7,8 C 53 % 1022,6 hPa 0,0 l/m 2 min 0 min 209 W/m 27,2 km/h (4 Bft)
13.03.2015 16:34 9,8 C 7,8 C 53 % 1022,6 hPa 0,0 l/m 2 min 0 min 168 W/m 23,0 km/h (4 Bft)
13.03.2015 16:36 9,7 C 7,2 C 53 % 1022,6 hPa 0,0 l/m 0 min 0 min 91 W/m 18,8 km/h (3 Bft)
13.03.2015 16:38 9,6 C 7,2 C 53 % 1022,6 hPa 0,0 l/m 2 min 0 min 144 W/m 18,8 km/h (3 Bft)
13.03.2015 16:40 9,6 C 7,2 C 53 % 1022,6 hPa 0,0 l/m 0 min 0 min 110 W/m 20,9 km/h (4 Bft)
13.03.2015 16:42 9,5 C 7,8 C 54 % 1022,5 hPa 0,0 l/m 2 min 0 min 179 W/m 23,0 km/h (4 Bft)
13.03.2015 16:44 9,4 C 7,8 C 54 % 1022,5 hPa 0,0 l/m 2 min 0 min 191 W/m 23,0 km/h (4 Bft)
13.03.2015 16:46 9,4 C 7,8 C 54 % 1022,6 hPa 0,0 l/m 0 min 0 min 97 W/m 23,0 km/h (4 Bft)
13.03.2015 16:48 9,4 C 7,8 C 54 % 1022,5 hPa 0,0 l/m 2 min 0 min 217 W/m 18,8 km/h (3 Bft)
13.03.2015 16:50 9,4 C 7,8 C 53 % 1022,5 hPa 0,0 l/m 2 min 0 min 161 W/m 27,2 km/h (4 Bft)
13.03.2015 16:52 9,4 C 7,8 C 54 % 1022,6 hPa 0,0 l/m 0 min 0 min 105 W/m 18,8 km/h (3 Bft)
13.03.2015 16:54 9,4 C 7,8 C 54 % 1022,6 hPa 0,0 l/m 2 min 0 min 120 W/m 23,0 km/h (4 Bft)
13.03.2015 16:56 9,4 C 7,8 C 54 % 1022,6 hPa 0,0 l/m 2 min 0 min 168 W/m 27,2 km/h (4 Bft)
13.03.2015 16:58 9,3 C 7,8 C 53 % 1022,6 hPa 0,0 l/m 2 min 0 min 183 W/m 29,3 km/h (5 Bft)
13.03.2015 17:00 9,3 C 7,8 C 54 % 1022,6 hPa 0,0 l/m 2 min 0 min 134 W/m 27,2 km/h (4 Bft)
13.03.2015 17:02 9,3 C 7,8 C 53 % 1022,6 hPa 0,0 l/m 2 min 0 min 146 W/m 29,3 km/h (5 Bft)
13.03.2015 17:04 9,3 C 7,8 C 53 % 1022,6 hPa 0,0 l/m 2 min 0 min 112 W/m 23,0 km/h (4 Bft)
13.03.2015 17:06 9,2 C 7,2 C 53 % 1022,7 hPa 0,0 l/m 0 min 0 min 90 W/m 27,2 km/h (4 Bft)
13.03.2015 17:08 9,2 C 7,2 C 53 % 1022,6 hPa 0,0 l/m 2 min 0 min 100 W/m 25,1 km/h (4 Bft)
13.03.2015 17:10 9,2 C 7,2 C 54 % 1022,7 hPa 0,0 l/m 0 min 0 min 67 W/m 18,8 km/h (3 Bft)
13.03.2015 17:12 9,1 C 6,7 C 54 % 1022,7 hPa 0,0 l/m 0 min 0 min 68 W/m 16,7 km/h (3 Bft)
13.03.2015 17:14 9,1 C 6,7 C 54 % 1022,8 hPa 0,0 l/m 0 min 0 min 69 W/m 23,0 km/h (4 Bft)
13.03.2015 17:16 9,0 C 6,7 C 54 % 1022,7 hPa 0,0 l/m 0 min 0 min 69 W/m 27,2 km/h (4 Bft)
13.03.2015 17:18 8,9 C 6,7 C 54 % 1022,8 hPa 0,0 l/m 0 min 0 min 70 W/m 20,9 km/h (4 Bft)
13.03.2015 17:20 8,9 C 6,7 C 55 % 1022,8 hPa 0,0 l/m 0 min 0 min 72 W/m 16,7 km/h (3 Bft)
13.03.2015 17:22 8,8 C 6,7 C 55 % 1022,8 hPa 0,0 l/m 0 min 0 min 74 W/m 18,8 km/h (3 Bft)
13.03.2015 17:24 8,7 C 6,7 C 55 % 1022,8 hPa 0,0 l/m 2 min 0 min 75 W/m 14,6 km/h (3 Bft)
13.03.2015 17:26 8,7 C 6,7 C 56 % 1022,8 hPa 0,0 l/m 2 min 0 min 77 W/m 16,7 km/h (3 Bft)
13.03.2015 17:28 8,7 C 6,7 C 56 % 1022,8 hPa 0,0 l/m 2 min 0 min 77 W/m 20,9 km/h (4 Bft)
13.03.2015 17:30 8,7 C 6,7 C 56 % 1022,8 hPa 0,0 l/m 2 min 0 min 77 W/m 18,8 km/h (3 Bft)
13.03.2015 17:32 8,6 C 6,7 C 56 % 1022,8 hPa 0,0 l/m 2 min 0 min 76 W/m 20,9 km/h (4 Bft)
13.03.2015 17:34 8,6 C 6,7 C 56 % 1022,8 hPa 0,0 l/m 2 min 0 min 73 W/m 16,7 km/h (3 Bft)
13.03.2015 17:36 8,5 C 6,7 C 56 % 1022,9 hPa 0,0 l/m 2 min 0 min 77 W/m 20,9 km/h (4 Bft)
13.03.2015 17:38 8,4 C 6,7 C 57 % 1022,9 hPa 0,0 l/m 2 min 0 min 72 W/m 14,6 km/h (3 Bft)
13.03.2015 17:40 8,4 C 6,7 C 57 % 1022,9 hPa 0,0 l/m 2 min 0 min 71 W/m 20,9 km/h (4 Bft)
13.03.2015 17:42 8,4 C 6,7 C 57 % 1022,9 hPa 0,0 l/m 2 min 0 min 68 W/m 20,9 km/h (4 Bft)
13.03.2015 17:44 8,4 C 6,7 C 56 % 1022,9 hPa 0,0 l/m 2 min 0 min 63 W/m 20,9 km/h (4 Bft)
13.03.2015 17:46 8,3 C 6,7 C 57 % 1022,9 hPa 0,0 l/m 2 min 0 min 62 W/m 18,8 km/h (3 Bft)
13.03.2015 17:48 8,3 C 6,7 C 57 % 1023,0 hPa 0,0 l/m 2 min 0 min 58 W/m 18,8 km/h (3 Bft)
13.03.2015 17:50 8,3 C 6,7 C 57 % 1022,9 hPa 0,0 l/m 2 min 0 min 51 W/m 18,8 km/h (3 Bft)
13.03.2015 17:52 8,3 C 6,1 C 57 % 1022,9 hPa 0,0 l/m 2 min 0 min 43 W/m 20,9 km/h (4 Bft)
13.03.2015 17:54 8,2 C 6,1 C 57 % 1022,9 hPa 0,0 l/m 0 min 0 min 39 W/m 25,1 km/h (4 Bft)
13.03.2015 17:56 8,2 C 6,1 C 56 % 1022,9 hPa 0,0 l/m 0 min 0 min 35 W/m 20,9 km/h (4 Bft)
13.03.2015 17:58 8,1 C 6,1 C 57 % 1022,9 hPa 0,0 l/m 0 min 0 min 32 W/m 20,9 km/h (4 Bft)
13.03.2015 18:00 8,0 C 6,1 C 57 % 1023,0 hPa 0,0 l/m 0 min 0 min 30 W/m 16,7 km/h (3 Bft)
13.03.2015 18:04 7,9 C 5,6 C 56 % 1023,1 hPa 0,0 l/m 0 min 0 min 28 W/m 20,9 km/h (4 Bft)
13.03.2015 18:06 7,8 C 5,6 C 57 % 1023,0 hPa 0,0 l/m 0 min 0 min 26 W/m 23,0 km/h (4 Bft)
13.03.2015 18:08 7,8 C 5,6 C 57 % 1023,0 hPa 0,0 l/m 0 min 0 min 23 W/m 16,7 km/h (3 Bft)
13.03.2015 18:10 7,7 C 5,6 C 57 % 1023,0 hPa 0,0 l/m 0 min 0 min 21 W/m 18,8 km/h (3 Bft)
13.03.2015 18:12 7,7 C 5,0 C 57 % 1023,1 hPa 0,0 l/m 2 min 0 min 22 W/m 18,8 km/h (3 Bft)
13.03.2015 18:14 7,6 C 5,0 C 57 % 1023,1 hPa 0,0 l/m 2 min 0 min 23 W/m 16,7 km/h (3 Bft)
13.03.2015 18:16 7,6 C 5,0 C 58 % 1023,1 hPa 0,0 l/m 2 min 0 min 21 W/m 16,7 km/h (3 Bft)
13.03.2015 18:18 7,5 C 5,0 C 58 % 1023,1 hPa 0,0 l/m 2 min 0 min 20 W/m 16,7 km/h (3 Bft)
13.03.2015 18:20 7,4 C 5,0 C 58 % 1023,1 hPa 0,0 l/m 2 min 0 min 17 W/m 16,7 km/h (3 Bft)
13.03.2015 18:22 7,4 C 5,6 C 58 % 1023,1 hPa 0,0 l/m 2 min 0 min 13 W/m 18,8 km/h (3 Bft)
13.03.2015 18:24 7,4 C 5,6 C 58 % 1023,2 hPa 0,0 l/m 0 min 0 min 10 W/m 14,6 km/h (3 Bft)
13.03.2015 18:26 7,3 C 5,6 C 58 % 1023,2 hPa 0,0 l/m 0 min 0 min 9 W/m 16,7 km/h (3 Bft)
13.03.2015 18:28 7,3 C 5,6 C 58 % 1023,2 hPa 0,0 l/m 0 min 0 min 7 W/m 14,6 km/h (3 Bft)
13.03.2015 18:30 7,3 C 5,6 C 59 % 1023,2 hPa 0,0 l/m 0 min 0 min 6 W/m 8,4 km/h (2 Bft)
13.03.2015 18:32 7,2 C 5,6 C 59 % 1023,2 hPa 0,0 l/m 0 min 0 min 5 W/m 14,6 km/h (3 Bft)
13.03.2015 18:34 7,2 C 5,6 C 59 % 1023,3 hPa 0,0 l/m 0 min 0 min 2 W/m 8,4 km/h (2 Bft)
13.03.2015 18:36 7,2 C 5,0 C 60 % 1023,3 hPa 0,0 l/m 0 min 0 min 0 W/m 14,6 km/h (3 Bft)
13.03.2015 18:38 7,2 C 5,0 C 60 % 1023,3 hPa 0,0 l/m 0 min 0 min 0 W/m 8,4 km/h (2 Bft)
13.03.2015 18:40 7,2 C 5,0 C 60 % 1023,3 hPa 0,0 l/m 0 min 0 min 0 W/m 10,5 km/h (2 Bft)
13.03.2015 18:42 7,1 C 5,0 C 60 % 1023,5 hPa 0,0 l/m 0 min 0 min 0 W/m 10,5 km/h (2 Bft)
13.03.2015 18:44 7,1 C 5,0 C 60 % 1023,5 hPa 0,0 l/m 0 min 0 min 0 W/m 20,9 km/h (4 Bft)
13.03.2015 18:46 7,1 C 5,0 C 60 % 1023,4 hPa 0,0 l/m 0 min 0 min 0 W/m 14,6 km/h (3 Bft)
13.03.2015 18:48 7,1 C 5,0 C 60 % 1023,5 hPa 0,0 l/m 0 min 0 min 0 W/m 14,6 km/h (3 Bft)
13.03.2015 18:50 7,1 C 5,0 C 60 % 1023,5 hPa 0,0 l/m 0 min 0 min 0 W/m 12,6 km/h (3 Bft)
13.03.2015 18:52 7,1 C 5,0 C 60 % 1023,6 hPa 0,0 l/m 0 min 0 min 0 W/m 14,6 km/h (3 Bft)
13.03.2015 18:54 7,0 C 5,0 C 60 % 1023,6 hPa 0,0 l/m 0 min 0 min 0 W/m 12,6 km/h (3 Bft)
13.03.2015 18:56 7,0 C 5,0 C 60 % 1023,6 hPa 0,0 l/m 0 min 0 min 0 W/m 12,6 km/h (3 Bft)
13.03.2015 18:58 7,0 C 5,0 C 60 % 1023,6 hPa 0,0 l/m 0 min 0 min 0 W/m 14,6 km/h (3 Bft)
13.03.2015 19:00 6,9 C 5,0 C 60 % 1023,6 hPa 0,0 l/m 0 min 0 min 0 W/m 16,7 km/h (3 Bft)
13.03.2015 19:02 6,9 C 5,0 C 60 % 1023,7 hPa 0,0 l/m 0 min 0 min 0 W/m 14,6 km/h (3 Bft)
13.03.2015 19:04 6,9 C 5,0 C 60 % 1023,7 hPa 0,0 l/m 0 min 0 min 0 W/m 10,5 km/h (2 Bft)
13.03.2015 19:06 6,9 C 5,0 C 60 % 1023,7 hPa 0,0 l/m 0 min 0 min 0 W/m 10,5 km/h (2 Bft)
13.03.2015 19:08 6,9 C 5,0 C 60 % 1023,7 hPa 0,0 l/m 0 min 0 min 0 W/m 14,6 km/h (3 Bft)
13.03.2015 19:10 6,9 C 5,0 C 61 % 1023,7 hPa 0,0 l/m 0 min 0 min 0 W/m 18,8 km/h (3 Bft)
13.03.2015 19:12 6,8 C 5,0 C 60 % 1023,7 hPa 0,0 l/m 0 min 0 min 0 W/m 14,6 km/h (3 Bft)
13.03.2015 19:14 6,8 C 5,0 C 60 % 1023,7 hPa 0,0 l/m 0 min 0 min 0 W/m 10,5 km/h (2 Bft)
13.03.2015 19:16 6,8 C 5,0 C 60 % 1023,7 hPa 0,0 l/m 0 min 0 min 0 W/m 8,4 km/h (2 Bft)
13.03.2015 19:18 6,8 C 5,0 C 60 % 1023,7 hPa 0,0 l/m 0 min 0 min 0 W/m 8,4 km/h (2 Bft)
13.03.2015 19:20 6,8 C 5,0 C 60 % 1023,7 hPa 0,0 l/m 0 min 0 min 0 W/m 10,5 km/h (2 Bft)
13.03.2015 19:22 6,8 C 5,0 C 60 % 1023,7 hPa 0,0 l/m 0 min 0 min 0 W/m 14,6 km/h (3 Bft)
13.03.2015 19:24 6,8 C 5,0 C 60 % 1023,8 hPa 0,0 l/m 0 min 0 min 0 W/m 10,5 km/h (2 Bft)
13.03.2015 19:26 6,8 C 5,0 C 60 % 1023,8 hPa 0,0 l/m 0 min 0 min 0 W/m 10,5 km/h (2 Bft)
13.03.2015 19:28 6,8 C 5,0 C 60 % 1023,8 hPa 0,0 l/m 0 min 0 min 0 W/m 10,5 km/h (2 Bft)
13.03.2015 19:30 6,8 C 5,0 C 61 % 1023,8 hPa 0,0 l/m 0 min 0 min 0 W/m 14,6 km/h (3 Bft)
13.03.2015 19:32 6,7 C 5,0 C 60 % 1023,8 hPa 0,0 l/m 0 min 0 min 0 W/m 10,5 km/h (2 Bft)
13.03.2015 19:34 6,7 C 5,0 C 60 % 1023,9 hPa 0,0 l/m 0 min 0 min 0 W/m 8,4 km/h (2 Bft)
13.03.2015 19:36 6,7 C 5,0 C 60 % 1023,8 hPa 0,0 l/m 0 min 0 min 0 W/m 14,6 km/h (3 Bft)
13.03.2015 19:38 6,7 C 5,0 C 60 % 1023,8 hPa 0,0 l/m 0 min 0 min 0 W/m 14,6 km/h (3 Bft)
13.03.2015 19:40 6,7 C 5,0 C 60 % 1023,8 hPa 0,0 l/m 0 min 0 min 0 W/m 14,6 km/h (3 Bft)
13.03.2015 19:42 6,7 C 5,0 C 59 % 1023,8 hPa 0,0 l/m 0 min 0 min 0 W/m 14,6 km/h (3 Bft)
13.03.2015 19:44 6,7 C 5,0 C 59 % 1023,9 hPa 0,0 l/m 0 min 0 min 0 W/m 14,6 km/h (3 Bft)
13.03.2015 19:46 6,7 C 5,0 C 59 % 1023,8 hPa 0,0 l/m 0 min 0 min 0 W/m 18,8 km/h (3 Bft)
13.03.2015 19:48 6,7 C 5,0 C 59 % 1023,8 hPa 0,0 l/m 0 min 0 min 0 W/m 14,6 km/h (3 Bft)
13.03.2015 19:50 6,7 C 5,0 C 59 % 1023,8 hPa 0,0 l/m 0 min 0 min 0 W/m 12,6 km/h (3 Bft)
13.03.2015 19:52 6,7 C 5,0 C 59 % 1023,8 hPa 0,0 l/m 0 min 0 min 0 W/m 14,6 km/h (3 Bft)
13.03.2015 19:54 6,7 C 5,0 C 59 % 1023,8 hPa 0,0 l/m 0 min 0 min 0 W/m 12,6 km/h (3 Bft)
13.03.2015 19:56 6,6 C 5,0 C 59 % 1023,8 hPa 0,0 l/m 0 min 0 min 0 W/m 16,7 km/h (3 Bft)
13.03.2015 19:58 6,6 C 5,0 C 59 % 1023,9 hPa 0,0 l/m 0 min 0 min 0 W/m 16,7 km/h (3 Bft)
13.03.2015 20:00 6,6 C 5,0 C 59 % 1023,9 hPa 0,0 l/m 0 min 0 min 0 W/m 18,8 km/h (3 Bft)
13.03.2015 20:02 6,6 C 5,0 C 59 % 1023,9 hPa 0,0 l/m 0 min 0 min 0 W/m 16,7 km/h (3 Bft)
13.03.2015 20:04 6,6 C 5,0 C 59 % 1023,9 hPa 0,0 l/m 0 min 0 min 0 W/m 14,6 km/h (3 Bft)
13.03.2015 20:06 6,6 C 5,0 C 59 % 1024,0 hPa 0,0 l/m 0 min 0 min 0 W/m 10,5 km/h (2 Bft)
13.03.2015 20:08 6,6 C 5,0 C 59 % 1024,0 hPa 0,0 l/m 0 min 0 min 0 W/m 23,0 km/h (4 Bft)
13.03.2015 20:10 6,6 C 5,0 C 59 % 1024,0 hPa 0,0 l/m 0 min 0 min 0 W/m 16,7 km/h (3 Bft)
13.03.2015 20:12 6,6 C 5,0 C 58 % 1024,0 hPa 0,0 l/m 0 min 0 min 0 W/m 16,7 km/h (3 Bft)
13.03.2015 20:14 6,6 C 5,0 C 58 % 1024,0 hPa 0,0 l/m 0 min 0 min 0 W/m 16,7 km/h (3 Bft)
13.03.2015 20:16 6,5 C 5,0 C 58 % 1024,0 hPa 0,0 l/m 0 min 0 min 0 W/m 14,6 km/h (3 Bft)
13.03.2015 20:18 6,5 C 5,0 C 58 % 1024,0 hPa 0,0 l/m 0 min 0 min 0 W/m 18,8 km/h (3 Bft)
13.03.2015 20:20 6,5 C 5,0 C 58 % 1024,0 hPa 0,0 l/m 0 min 0 min 0 W/m 16,7 km/h (3 Bft)
13.03.2015 20:22 6,5 C 5,0 C 57 % 1024,1 hPa 0,0 l/m 0 min 0 min 0 W/m 18,8 km/h (3 Bft)
13.03.2015 20:24 6,5 C 5,0 C 58 % 1024,1 hPa 0,0 l/m 0 min 0 min 0 W/m 23,0 km/h (4 Bft)
13.03.2015 20:26 6,5 C 5,0 C 58 % 1024,1 hPa 0,0 l/m 0 min 0 min 0 W/m 18,8 km/h (3 Bft)
13.03.2015 20:28 6,5 C 5,0 C 58 % 1024,1 hPa 0,0 l/m 0 min 0 min 0 W/m 18,8 km/h (3 Bft)
13.03.2015 20:30 6,4 C 5,0 C 57 % 1024,1 hPa 0,0 l/m 0 min 0 min 0 W/m 20,9 km/h (4 Bft)
13.03.2015 20:32 6,4 C 5,0 C 57 % 1024,1 hPa 0,0 l/m 0 min 0 min 0 W/m 16,7 km/h (3 Bft)
13.03.2015 20:34 6,4 C 5,0 C 57 % 1024,1 hPa 0,0 l/m 0 min 0 min 0 W/m 10,5 km/h (2 Bft)
13.03.2015 20:36 6,4 C 5,0 C 58 % 1024,1 hPa 0,0 l/m 0 min 0 min 0 W/m 14,6 km/h (3 Bft)
13.03.2015 20:38 6,4 C 5,0 C 57 % 1024,1 hPa 0,0 l/m 0 min 0 min 0 W/m 18,8 km/h (3 Bft)
13.03.2015 20:40 6,4 C 5,0 C 57 % 1024,2 hPa 0,0 l/m 0 min 0 min 0 W/m 14,6 km/h (3 Bft)
13.03.2015 20:42 6,4 C 5,0 C 57 % 1024,2 hPa 0,0 l/m 0 min 0 min 0 W/m 23,0 km/h (4 Bft)
13.03.2015 20:44 6,4 C 5,0 C 57 % 1024,2 hPa 0,0 l/m 0 min 0 min 0 W/m 20,9 km/h (4 Bft)
13.03.2015 20:46 6,4 C 5,0 C 57 % 1024,3 hPa 0,0 l/m 0 min 0 min 0 W/m 20,9 km/h (4 Bft)
13.03.2015 20:48 6,4 C 5,0 C 57 % 1024,3 hPa 0,0 l/m 0 min 0 min 0 W/m 16,7 km/h (3 Bft)
13.03.2015 20:50 6,4 C 5,0 C 57 % 1024,3 hPa 0,0 l/m 0 min 0 min 0 W/m 25,1 km/h (4 Bft)
13.03.2015 20:52 6,4 C 5,0 C 56 % 1024,3 hPa 0,0 l/m 0 min 0 min 0 W/m 29,3 km/h (5 Bft)
13.03.2015 20:54 6,4 C 5,0 C 57 % 1024,1 hPa 0,0 l/m 0 min 0 min 0 W/m 10,5 km/h (2 Bft)
13.03.2015 20:56 6,4 C 5,0 C 57 % 1024,2 hPa 0,0 l/m 0 min 0 min 0 W/m 18,8 km/h (3 Bft)
13.03.2015 20:58 6,5 C 5,0 C 57 % 1024,2 hPa 0,0 l/m 0 min 0 min 0 W/m 18,8 km/h (3 Bft)
13.03.2015 21:00 6,5 C 5,0 C 57 % 1024,3 hPa 0,0 l/m 0 min 0 min 0 W/m 16,7 km/h (3 Bft)
13.03.2015 21:02 6,5 C 5,0 C 57 % 1024,3 hPa 0,0 l/m 0 min 0 min 0 W/m 18,8 km/h (3 Bft)
13.03.2015 21:04 6,5 C 5,0 C 57 % 1024,4 hPa 0,0 l/m 0 min 0 min 0 W/m 18,8 km/h (3 Bft)
13.03.2015 21:06 6,5 C 5,0 C 57 % 1024,4 hPa 0,0 l/m 0 min 0 min 0 W/m 25,1 km/h (4 Bft)
13.03.2015 21:08 6,5 C 5,0 C 57 % 1024,4 hPa 0,0 l/m 0 min 0 min 0 W/m 23,0 km/h (4 Bft)
13.03.2015 21:10 6,4 C 5,0 C 56 % 1024,4 hPa 0,0 l/m 0 min 0 min 0 W/m 20,9 km/h (4 Bft)
13.03.2015 21:12 6,4 C 5,0 C 57 % 1024,4 hPa 0,0 l/m 0 min 0 min 0 W/m 25,1 km/h (4 Bft)
13.03.2015 21:14 6,5 C 5,0 C 56 % 1024,3 hPa 0,0 l/m 0 min 0 min 0 W/m 14,6 km/h (3 Bft)
13.03.2015 21:16 6,5 C 5,0 C 57 % 1024,4 hPa 0,0 l/m 0 min 0 min 0 W/m 10,5 km/h (2 Bft)
13.03.2015 21:18 6,4 C 5,0 C 57 % 1024,4 hPa 0,0 l/m 0 min 0 min 0 W/m 20,9 km/h (4 Bft)
13.03.2015 21:20 6,4 C 5,0 C 57 % 1024,3 hPa 0,0 l/m 0 min 0 min 0 W/m 18,8 km/h (3 Bft)
13.03.2015 21:22 6,4 C 5,0 C 57 % 1024,4 hPa 0,0 l/m 0 min 0 min 0 W/m 14,6 km/h (3 Bft)
13.03.2015 21:24 6,4 C 5,0 C 57 % 1024,4 hPa 0,0 l/m 0 min 0 min 0 W/m 20,9 km/h (4 Bft)
13.03.2015 21:26 6,4 C 5,0 C 58 % 1024,4 hPa 0,0 l/m 0 min 0 min 0 W/m 10,5 km/h (2 Bft)
13.03.2015 21:28 6,4 C 4,4 C 58 % 1024,4 hPa 0,0 l/m 0 min 0 min 0 W/m 14,6 km/h (3 Bft)
13.03.2015 21:30 6,4 C 4,4 C 59 % 1024,4 hPa 0,0 l/m 0 min 0 min 0 W/m 16,7 km/h (3 Bft)
13.03.2015 21:32 6,4 C 4,4 C 59 % 1024,4 hPa 0,0 l/m 0 min 0 min 0 W/m 18,8 km/h (3 Bft)
13.03.2015 21:34 6,4 C 4,4 C 60 % 1024,4 hPa 0,0 l/m 0 min 0 min 0 W/m 14,6 km/h (3 Bft)
13.03.2015 21:36 6,4 C 4,4 C 60 % 1024,4 hPa 0,0 l/m 0 min 0 min 0 W/m 16,7 km/h (3 Bft)
13.03.2015 21:38 6,3 C 4,4 C 60 % 1024,4 hPa 0,0 l/m 0 min 0 min 0 W/m 16,7 km/h (3 Bft)
13.03.2015 21:40 6,3 C 4,4 C 60 % 1024,5 hPa 0,0 l/m 0 min 0 min 0 W/m 18,8 km/h (3 Bft)
13.03.2015 21:42 6,2 C 4,4 C 60 % 1024,5 hPa 0,0 l/m 0 min 0 min 0 W/m 18,8 km/h (3 Bft)
13.03.2015 21:44 6,2 C 4,4 C 61 % 1024,5 hPa 0,0 l/m 0 min 0 min 0 W/m 16,7 km/h (3 Bft)
13.03.2015 21:46 6,2 C 4,4 C 61 % 1024,5 hPa 0,0 l/m 0 min 0 min 0 W/m 27,2 km/h (4 Bft)
13.03.2015 21:48 6,1 C 4,4 C 61 % 1024,6 hPa 0,0 l/m 0 min 0 min 0 W/m 20,9 km/h (4 Bft)
13.03.2015 21:50 6,1 C 4,4 C 60 % 1024,6 hPa 0,0 l/m 0 min 0 min 0 W/m 23,0 km/h (4 Bft)
13.03.2015 21:52 6,0 C 4,4 C 61 % 1024,6 hPa 0,0 l/m 0 min 0 min 0 W/m 18,8 km/h (3 Bft)
13.03.2015 21:54 5,9 C 4,4 C 61 % 1024,6 hPa 0,0 l/m 0 min 0 min 0 W/m 18,8 km/h (3 Bft)
13.03.2015 21:56 5,9 C 3,9 C 61 % 1024,6 hPa 0,0 l/m 0 min 0 min 0 W/m 25,1 km/h (4 Bft)
13.03.2015 21:58 5,9 C 3,9 C 61 % 1024,7 hPa 0,0 l/m 0 min 0 min 0 W/m 20,9 km/h (4 Bft)
13.03.2015 22:00 5,9 C 3,9 C 61 % 1024,7 hPa 0,0 l/m 0 min 0 min 0 W/m 20,9 km/h (4 Bft)
13.03.2015 22:02 5,8 C 3,9 C 61 % 1024,7 hPa 0,0 l/m 0 min 0 min 0 W/m 18,8 km/h (3 Bft)
13.03.2015 22:04 5,8 C 3,9 C 61 % 1024,7 hPa 0,0 l/m 0 min 0 min 0 W/m 25,1 km/h (4 Bft)
13.03.2015 22:06 5,8 C 3,9 C 61 % 1024,8 hPa 0,0 l/m 0 min 0 min 0 W/m 20,9 km/h (4 Bft)
13.03.2015 22:08 5,7 C 3,9 C 61 % 1024,7 hPa 0,0 l/m 0 min 0 min 0 W/m 27,2 km/h (4 Bft)
13.03.2015 22:10 5,7 C 3,9 C 61 % 1024,8 hPa 0,0 l/m 0 min 0 min 0 W/m 23,0 km/h (4 Bft)
13.03.2015 22:12 5,7 C 3,9 C 61 % 1024,8 hPa 0,0 l/m 0 min 0 min 0 W/m 23,0 km/h (4 Bft)
13.03.2015 22:14 5,7 C 3,9 C 61 % 1024,8 hPa 0,0 l/m 0 min 0 min 0 W/m 18,8 km/h (3 Bft)
13.03.2015 22:16 5,7 C 3,9 C 61 % 1024,9 hPa 0,0 l/m 0 min 0 min 0 W/m 29,3 km/h (5 Bft)
13.03.2015 22:18 5,7 C 3,9 C 61 % 1024,9 hPa 0,0 l/m 0 min 0 min 0 W/m 23,0 km/h (4 Bft)
13.03.2015 22:20 5,6 C 3,9 C 61 % 1024,9 hPa 0,0 l/m 0 min 0 min 0 W/m 23,0 km/h (4 Bft)
13.03.2015 22:22 5,6 C 3,9 C 61 % 1024,9 hPa 0,0 l/m 0 min 0 min 0 W/m 20,9 km/h (4 Bft)
13.03.2015 22:24 5,6 C 3,9 C 61 % 1024,9 hPa 0,0 l/m 0 min 0 min 0 W/m 29,3 km/h (5 Bft)
13.03.2015 22:26 5,6 C 3,9 C 62 % 1024,9 hPa 0,0 l/m 0 min 0 min 0 W/m 20,9 km/h (4 Bft)
13.03.2015 22:28 5,6 C 3,9 C 62 % 1024,9 hPa 0,0 l/m 0 min 0 min 0 W/m 23,0 km/h (4 Bft)
13.03.2015 22:30 5,5 C 3,9 C 62 % 1025,0 hPa 0,0 l/m 0 min 0 min 0 W/m 20,9 km/h (4 Bft)
13.03.2015 22:32 5,5 C 3,9 C 62 % 1025,0 hPa 0,0 l/m 0 min 0 min 0 W/m 29,3 km/h (5 Bft)
13.03.2015 22:34 5,5 C 3,9 C 62 % 1025,0 hPa 0,0 l/m 0 min 0 min 0 W/m 20,9 km/h (4 Bft)
13.03.2015 22:36 5,5 C 3,9 C 62 % 1025,0 hPa 0,0 l/m 0 min 0 min 0 W/m 23,0 km/h (4 Bft)
13.03.2015 22:38 5,4 C 3,9 C 63 % 1025,0 hPa 0,0 l/m 0 min 0 min 0 W/m 29,3 km/h (5 Bft)
13.03.2015 22:40 5,4 C 3,9 C 63 % 1025,0 hPa 0,0 l/m 0 min 0 min 0 W/m 29,3 km/h (5 Bft)
13.03.2015 22:42 5,4 C 3,9 C 63 % 1025,1 hPa 0,0 l/m 0 min 0 min 0 W/m 37,7 km/h (5 Bft)
13.03.2015 22:44 5,4 C 3,9 C 63 % 1025,0 hPa 0,0 l/m 0 min 0 min 0 W/m 29,3 km/h (5 Bft)
13.03.2015 22:46 5,4 C 3,9 C 63 % 1025,1 hPa 0,0 l/m 0 min 0 min 0 W/m 23,0 km/h (4 Bft)
13.03.2015 22:48 5,4 C 3,9 C 64 % 1025,1 hPa 0,0 l/m 0 min 0 min 0 W/m 20,9 km/h (4 Bft)
13.03.2015 22:50 5,4 C 3,9 C 64 % 1025,1 hPa 0,0 l/m 0 min 0 min 0 W/m 18,8 km/h (3 Bft)
13.03.2015 22:52 5,4 C 3,9 C 64 % 1025,2 hPa 0,0 l/m 0 min 0 min 0 W/m 14,6 km/h (3 Bft)
13.03.2015 22:54 5,3 C 3,9 C 64 % 1025,2 hPa 0,0 l/m 0 min 0 min 0 W/m 23,0 km/h (4 Bft)
13.03.2015 22:56 5,3 C 3,3 C 64 % 1025,2 hPa 0,0 l/m 0 min 0 min 0 W/m 20,9 km/h (4 Bft)
13.03.2015 22:58 5,3 C 3,3 C 64 % 1025,2 hPa 0,0 l/m 0 min 0 min 0 W/m 23,0 km/h (4 Bft)
13.03.2015 23:00 5,3 C 3,3 C 64 % 1025,2 hPa 0,0 l/m 0 min 0 min 0 W/m 20,9 km/h (4 Bft)
13.03.2015 23:02 5,2 C 3,3 C 64 % 1025,2 hPa 0,0 l/m 0 min 0 min 0 W/m 14,6 km/h (3 Bft)
13.03.2015 23:04 5,2 C 3,3 C 64 % 1025,2 hPa 0,0 l/m 0 min 0 min 0 W/m 18,8 km/h (3 Bft)
13.03.2015 23:06 5,2 C 3,3 C 65 % 1025,2 hPa 0,0 l/m 0 min 0 min 0 W/m 14,6 km/h (3 Bft)
13.03.2015 23:08 5,2 C 3,3 C 65 % 1025,2 hPa 0,0 l/m 0 min 0 min 0 W/m 14,6 km/h (3 Bft)
13.03.2015 23:10 5,1 C 3,3 C 65 % 1025,2 hPa 0,0 l/m 0 min 0 min 0 W/m 14,6 km/h (3 Bft)
13.03.2015 23:12 5,1 C 3,3 C 65 % 1025,2 hPa 0,0 l/m 0 min 0 min 0 W/m 23,0 km/h (4 Bft)
13.03.2015 23:14 5,0 C 2,8 C 65 % 1025,2 hPa 0,0 l/m 0 min 0 min 0 W/m 16,7 km/h (3 Bft)
13.03.2015 23:16 5,0 C 2,8 C 65 % 1025,2 hPa 0,0 l/m 0 min 0 min 0 W/m 16,7 km/h (3 Bft)
13.03.2015 23:18 4,9 C 2,8 C 65 % 1025,2 hPa 0,0 l/m 0 min 0 min 0 W/m 18,8 km/h (3 Bft)
13.03.2015 23:20 4,9 C 2,8 C 65 % 1025,2 hPa 0,0 l/m 0 min 0 min 0 W/m 16,7 km/h (3 Bft)
13.03.2015 23:22 4,8 C 2,2 C 66 % 1025,2 hPa 0,0 l/m 0 min 0 min 0 W/m 16,7 km/h (3 Bft)
13.03.2015 23:24 4,7 C 2,2 C 66 % 1025,2 hPa 0,0 l/m 0 min 0 min 0 W/m 14,6 km/h (3 Bft)
13.03.2015 23:26 4,7 C 2,2 C 66 % 1025,2 hPa 0,0 l/m 0 min 0 min 0 W/m 16,7 km/h (3 Bft)
13.03.2015 23:28 4,7 C 2,2 C 66 % 1025,2 hPa 0,0 l/m 0 min 0 min 0 W/m 14,6 km/h (3 Bft)
13.03.2015 23:30 4,6 C 2,2 C 66 % 1025,2 hPa 0,0 l/m 0 min 0 min 0 W/m 10,5 km/h (2 Bft)
13.03.2015 23:32 4,6 C 2,2 C 66 % 1025,2 hPa 0,0 l/m 0 min 0 min 0 W/m 14,6 km/h (3 Bft)
13.03.2015 23:34 4,4 C 2,2 C 66 % 1025,2 hPa 0,0 l/m 0 min 0 min 0 W/m 14,6 km/h (3 Bft)
13.03.2015 23:36 4,4 C 2,2 C 66 % 1025,2 hPa 0,0 l/m 0 min 0 min 0 W/m 14,6 km/h (3 Bft)
13.03.2015 23:38 4,4 C 1,7 C 66 % 1025,2 hPa 0,0 l/m 0 min 0 min 0 W/m 10,5 km/h (2 Bft)
13.03.2015 23:40 4,3 C 1,7 C 66 % 1025,2 hPa 0,0 l/m 0 min 0 min 0 W/m 14,6 km/h (3 Bft)
13.03.2015 23:42 4,3 C 1,7 C 66 % 1025,2 hPa 0,0 l/m 0 min 0 min 0 W/m 14,6 km/h (3 Bft)
13.03.2015 23:44 4,2 C 1,7 C 66 % 1025,2 hPa 0,0 l/m 0 min 0 min 0 W/m 12,6 km/h (3 Bft)
13.03.2015 23:46 4,2 C 1,7 C 67 % 1025,2 hPa 0,0 l/m 0 min 0 min 0 W/m 10,5 km/h (2 Bft)
13.03.2015 23:48 4,1 C 1,7 C 67 % 1025,2 hPa 0,0 l/m 0 min 0 min 0 W/m 12,6 km/h (3 Bft)
13.03.2015 23:50 4,1 C 1,7 C 67 % 1025,2 hPa 0,0 l/m 0 min 0 min 0 W/m 10,5 km/h (2 Bft)
13.03.2015 23:52 4,0 C 1,7 C 67 % 1025,3 hPa 0,0 l/m 0 min 0 min 0 W/m 6,3 km/h (2 Bft)
13.03.2015 23:54 4,0 C 1,7 C 67 % 1025,3 hPa 0,0 l/m 0 min 0 min 0 W/m 6,3 km/h (2 Bft)
13.03.2015 23:56 3,9 C 1,7 C 67 % 1025,2 hPa 0,0 l/m 0 min 0 min 0 W/m 6,3 km/h (2 Bft)
13.03.2015 23:58 3,9 C 1,1 C 67 % 1025,3 hPa 0,0 l/m 0 min 0 min 0 W/m 6,3 km/h (2 Bft)
_ Min-Zeit 07:10 07:02 16:28 16:22 - - - - 00:02
Minimum _ 0,2 C -2,2 C 52 % 1022,5 hPa - - - - 0,0 km/h (0 Bft)
_ Max-Zeit 14:46 14:32 08:18 00:00 00:00 07:06 00:00 12:10 22:42
Maximum _ 10,0 C 14,4 C 92 % 1026,0 hPa 0,0 l/m 2 min 0 min 703 W/m 37,7 km/h
O (5 Bft)
Durchschnitt _ 5,2 C 3,7 C 72 % 1024,4 hPa #0,0 l/m #8:50 h #0 min. 250 W/m 14,2 km/h (3 Bft)
© 2015 W. Hausmann